Now boarding.
Please wait.

menu

Important!

Any data obtained from this website should not be used in real world navigation/ flight!

Weather Service

METAR Weather Service:

GlobalOne Weather Service with live information directly from Vatsim. To get your latest METAR simply enter the ICAO of your desired destination.


Enter ICAO code to obtain METAR from Vatsim:

ICAO code:



Metar and TAF for
METAR

Please issue an ICAO code.

TAF

AMB GOBD 251730Z 2518/2624 14008KT 9999 SCT015 PROB40 TEMPO 2519/2523 4000 TSRA BKN013 FEW025CB  TLPL 251700Z 2518/2618 09019KT 9999 SCT024 TEMPO 2518/2612 BKN018TCU PROB40 TEMPO 2518/2612 TSRA FEW016CB BGTL 260100Z 2601/2707 12006KT 9999 OVC050 QNH2960INS BECMG 2603/2604 12006KT 9000 -SN BKN030 620309 QNH2973INS BECMG 2610/2611 12015G25KT 9999 NSW SCT030 BKN050 QNH2966INS BECMG 2614/2615 12015G30KT 6000 -SN DRSN BKN030 620309 520008 QNH2960INS BECMG 2703/2704 12030G40KT 9999 DRSN BKN030 620309 530008 QNH2960INS TXM03/2620Z TNM09/2602Z BIAR 260103Z 2603/2703 16005KT 9999 -RA BKN015 OVC030 TX05/2615Z TN01/2605Z TEMPO 2603/2608 5000 RADZ BKN010 OVC015 BECMG 2610/2613 NSW SCT025 BKN043 BIEG 260103Z 2603/2703 22010KT 9999 FEW030 SCT050 TX07/2615Z TNM01/2703Z PROB40 TEMPO 2603/2606 5000 SHRASN BKN015 BIKF 260103Z 2603/2703 27015KT 9999 -SHRA FEW017 BKN027 TX07/2615Z TN02/2624Z BIRK 260103Z 2603/2703 27015KT 9999 -SHRA FEW022 BKN033 TX07/2615Z TN04/2606Z BKPR 251730Z 2518/2618 35008KT CAVOK TEMPO 2612/2618 01018KT CBBC 260038Z 2601/2605 VRB03KT P6SM FEW012 SCT240 RMK FCST BASED ON AUTO OBS. NXT FCST WILL BE ISSUED AT 261245Z CWSA 251938Z 2520/2524 04006KT P6SM SCT040 RMK FCST BASED ON AUTO OBS. NXT FCST WILL BE ISSUED AT 260745Z CYAH 251743Z 2518/2521 20015G25KT P6SM -RA OVC012 TEMPO 2518/2521 21/2SM -RA BR OVC007 RMK FCST BASED ON AUTO OBS. NXT FCST WILL BE ISSUED AT 261045Z CYAM 260140Z 2602/2614 29005KT 11/2SM SHRA BR BKN005 OVC015 TEMPO 2602/2605 6SM -SHRA BR SCT003 OVC015 PROB30 2602/2605 VRB15G25KT 1SM +TSRA BR OVC001CB FM260500 30012G22KT 11/2SM -DZ -RA BR OVC003 TEMPO 2605/2611 P6SM NSW OVC008 FM261100 29012G22KT P6SM SCT004 OVC010 RMK NXT FCST BY 260800Z CYAT 251511Z 2515/2519 30012KT P6SM SCT008 OVC015 TEMPO 2515/2517 4SM -RA BR OVC008 FM251700 28012KT P6SM OVC015 TEMPO 2517/2519 SCT015 BKN030 RMK FCST BASED ON AUTO OBS. WND SENSORS INOP. NXT FCST WILL BE ISSUED AT 260845Z CYAW 260136Z 2600/2606 FCST CNCLD DUE END OF FLYING PROGRAM RMK NXT FCST WILL BE ISSUED AT 261315Z CYAY 260138Z 2602/2614 20012KT P6SM BKN100 OVC200 FM260700 18012G22KT P6SM FEW015 BKN030 TEMPO 2607/2610 5SM -RA BR BKN015 FM261000 21015G25KT 6SM -RA BR SCT008 OVC015 TEMPO 2610/2614 3SM -RA BR OVC008 BECMG 2612/2614 23020G30KT RMK FCST BASED ON AUTO OBS. NXT FCST BY 260800Z CYAZ 251738Z 2518/2601 VRB03KT P6SM SCT240 BECMG 2521/2523 36006KT RMK NXT FCST WILL BE ISSUED AT 261445Z CYBB 251838Z 2519/2523 30012KT P6SM OVC020 TEMPO 2519/2523 5SM -SN -FZDZ OVC015 RMK NXT FCST WILL BE ISSUED AT 261345Z CYBC 260138Z 2602/2614 21008KT 6SM -SHRA BR OVC020 TEMPO 2602/2604 2SM -RA -DZ BR OVC004 FM260400 21012KT 1SM -RA BR OVC003 TEMPO 2604/2608 6SM -RA BR OVC010 FM260800 21010KT 1SM -RA BR OVC003 TEMPO 2608/2614 3SM -RA BR OVC008 RMK FCST BASED ON AUTO OBS. NXT FCST BY 260800Z CYBL 260038Z 2601/2604 VRB03KT P6SM BKN220 RMK NXT FCST WILL BE ISSUED AT 261445Z CYBX 260138Z 2602/2614 23017G27KT P6SM SCT050 OVC120 FM260600 23020G30KT P6SM SCT012 OVC030 TEMPO 2606/2609 4SM -RA BR OVC012 FM260900 22025G35KT 6SM -RA BR SCT007 OVC012 TEMPO 2609/2612 3SM -DZ BR OVC007 FM261200 23025G40KT 3SM -RA BR OVC006 RMK NXT FCST BY 260800Z CYCA 260138Z 2602/2614 18010G20KT P6SM SCT070 OVC120 FM260500 20020G30KT P6SM SCT012 OVC025 TEMPO 2605/2610 5SM -RA BR OVC012 FM261300 22020G30KT P6SM BKN015 OVC025 RMK FCST BASED ON AUTO OBS. NXT FCST BY 260800Z CYCB 260210Z 2602/2613 34006KT P6SM FEW008 SCT015 BKN040 TEMPO 2602/2613 3SM -SN BR BKN008 OVC015 RMK NXT FCST BY 260700Z CYCG 260038Z 2601/2604 VRB03KT P6SM SCT220 RMK NXT FCST WILL BE ISSUED AT 261445Z CYCO 260038Z 2601/2613 02005KT P6SM SCT015 OVC040 TEMPO 2601/2604 3SM -SN -FZDZ BR BKN012 OVC040 FM260400 32010G20KT P6SM SCT009 OVC040 TEMPO 2604/2608 3SM -SN BR BKN009 OVC015 FM260800 32015G25KT P6SM SCT020 BKN050 TEMPO 2608/2613 5SM -SHSN OVC020 RMK NXT FCST BY 260700Z CYCX 252359Z 2600/2612 FCST CNCLD DUE END OF FLYING PROGRAM RMK NXT FCST WILL BE ISSUED AT 260915Z CYCY 260038Z 2601/2613 28010KT P6SM SCT015 OVC120 TEMPO 2601/2603 2SM -SN BKN015 OVC120 BECMG 2604/2606 27020G30KT RMK FCST BASED ON AUTO OBS. NXT FCST BY 260700Z CYDF 260138Z 2602/2614 21004KT P6SM FEW030 SCT220 FM260600 21006KT P6SM BKN120 OVC200 FM260900 21010KT P6SM SCT020 OVC050 TEMPO 2609/2614 P6SM -SHRA BKN020 BECMG 2612/2614 22015G25KT RMK NXT FCST BY 260800Z CYDP 251939Z 2520/2523 24008KT P6SM FEW140 TEMPO 2520/2523 5SM -RA BR OVC040 RMK NXT FCST WILL BE ISSUED AT 260945Z CYDQ 260038Z 2601/2605 26012G22KT P6SM FEW220 FM260300 26010KT P6SM FEW060 BKN120 RMK FCST BASED ON AUTO OBS. NXT FCST WILL BE ISSUED AT 261245Z CYEN 251738Z 2518/2524 30015KT P6SM BKN012 TEMPO 2518/2521 SCT012 BKN025 FM252100 32015KT P6SM BKN030 TEMPO 2521/2524 BKN020 RMK FCST BASED ON AUTO OBS. NXT FCST WILL BE ISSUED AT 261145Z CYER 251511Z 2515/2519 FCST NOT AVBL DUE CLD HGT SENSOR INOP RMK FCST BASED ON AUTO OBS. NXT FCST WILL BE ISSUED AT 260845Z CYEV 260038Z 2601/2613 32006KT P6SM SCT015 BKN070 TEMPO 2601/2604 5SM -SN OVC015 FM260400 33008KT P6SM BKN015 TEMPO 2604/2613 SCT015 PROB30 2609/2613 1/2SM FZFG VV002 RMK NXT FCST BY 260700Z CYGH 252242Z 2522/2523 29008KT P6SM OVC030 RMK NXT FCST WILL BE ISSUED AT 261415Z CYGK 252007Z 2520/2603 16015G25KT P6SM SCT007 OVC025 TEMPO 2520/2524 4SM -RA BR OVC007 FM260000 16012G22KT 4SM -RA BR OVC007 TEMPO 2600/2603 6SM BR SCT007 OVC025 PROB30 2600/2603 2SM -SHRA BR OVC005 RMK NXT FCST WILL BE ISSUED AT 261145Z CYGP 260138Z 2602/2614 VRB03KT P6SM BKN060 TEMPO 2602/2605 P6SM -SHRA OVC015 FM260500 20010KT 3SM -RA BR OVC012 TEMPO 2605/2614 6SM -RA BR PROB30 2605/2614 2SM -SHRA BR OVC008 RMK NXT FCST BY 260800Z CYGQ 260138Z 2602/2614 31005KT 6SM -RA BR SCT008 OVC040 TEMPO 2602/2604 2SM -RA BR BKN008 OVC040 FM260400 31005KT 6SM -RA BR OVC010 TEMPO 2604/2612 2SM -RA BR OVC005 FM261200 32005KT P6SM BKN012 TEMPO 2612/2614 BKN008 RMK NXT FCST BY 260800Z CYGR 251938Z 2520/2602 19010G20KT P6SM SCT240 FM252300 19018G28KT P6SM FEW030 SCT150 BKN220 RMK NXT FCST WILL BE ISSUED AT 261045Z CYGT 251838Z 2519/2521 32018KT P6SM OVC025 TEMPO 2519/2521 5SM -SN BKN010 OVC020 RMK NXT FCST WILL BE ISSUED AT 261045Z CYGV 260138Z 2602/2614 19012G22KT P6SM OVC060 TEMPO 2602/2605 3SM -SHRA BR OVC010 FM260500 22012KT 1SM -RA BR OVC003 TEMPO 2605/2614 3SM -RA BR OVC010 RMK FCST BASED ON AUTO OBS. NXT FCST BY 260800Z CYGX 260038Z 2601/2613 35008KT P6SM BKN025 BKN070 TEMPO 2601/2609 P6SM -SHRA BKN020 BKN070 FM260900 35006KT P6SM FEW008 BKN025 TEMPO 2609/2613 4SM BR BKN008 BKN025 RMK NXT FCST BY 260700Z CYHD 260138Z 2602/2614 28008KT P6SM OVC030 TEMPO 2602/2614 6SM -SHRA BR OVC020 PROB30 2606/2612 2SM BR OVC004 RMK FCST BASED ON AUTO OBS. NXT FCST BY 260800Z CYHI 252040Z 2520/2524 25012KT 2SM -SN BR OVC015 TEMPO 2520/2524 P6SM -SN SCT015 BKN030 PROB30 2520/2524 1/2SM SHSN VV003 RMK NXT FCST WILL BE ISSUED AT 261545Z CYHM 260207Z 2602/2624 20015KT 6SM -SHRA BR SCT004 OVC025 TEMPO 2602/2612 2SM SHRA BR VCTS BKN004 OVC025CB FM261200 25012G22KT P6SM -SHRA BKN008 OVC015 FM261400 27015G25KT P6SM BKN015 FM261700 27015G25KT P6SM BKN030 FM262300 28010KT P6SM SCT040 RMK NXT FCST BY 260600Z CYIO 260038Z 2601/2613 15007KT P6SM BKN025 TEMPO 2601/2613 BKN020 RMK FCST BASED ON AUTO OBS. NXT FCST BY 260700Z CYIV 260038Z 2601/2613 26005KT P6SM -SHRA SCT008 OVC025 TEMPO 2601/2612 5SM -SHRA BR BKN008 OVC015 BECMG 2606/2608 36006KT FM261200 34006KT P6SM SCT012 BKN025 TEMPO 2612/2613 BKN012 BKN025 RMK NXT FCST BY 260700Z CYKA 260038Z 2601/2613 VRB03KT P6SM FEW090 SCT230 RMK NXT FCST BY 260700Z CYKF 260138Z 2602/2614 18012G22KT P6SM OVC007 TEMPO 2602/2606 5SM -SHRA BR OVC005 PROB40 2604/2606 VRB20G30KT 1SM +TSRA BR BKN005 OVC030CB FM260600 21012G22KT P6SM SCT005 OVC010 TEMPO 2606/2610 3SM -SHRA VCTS BR BKN005 OVC010CB FM261000 26012G22KT P6SM BKN008 OVC080 BECMG 2612/2614 28015G25KT RMK FCST BASED ON AUTO OBS. NXT FCST BY 260800Z CYKJ 251838Z 2519/2524 36007KT P6SM BKN025 TEMPO 2519/2524 BKN020 RMK FCST BASED ON AUTO OBS. NXT FCST WILL BE ISSUED AT 260945Z CYKL 260138Z 2602/2614 16015KT 5SM -RA BR BKN009 OVC015 TEMPO 2602/2603 6SM -RA BR SCT009 OVC025 FM260400 22015G25KT 6SM -RA -DZ BR OVC015 TEMPO 2604/2606 3SM -DZ BR OVC008 FM260600 23017G27KT 2SM -DZ BR OVC005 TEMPO 2606/2613 6SM -RA BR SCT005 OVC009 PROB30 2606/2613 1SM -DZ BR OVC003 FM261300 19010G20KT 3SM -RA BR OVC005 RMK FCST BASED ON AUTO OBS. NXT FCST BY 260800Z CYKQ 251911Z 2519/2521 21012G22KT P6SM OVC030 TEMPO 2519/2521 2SM -SHRA BR OVC004 BECMG 2519/2521 31012G22KT RMK NXT FCST WILL BE ISSUED AT 261445Z CYLD 251939Z 2520/2601 23005KT P6SM SCT008 OVC020 TEMPO 2520/2601 5SM -RA -DZ BR OVC008 BECMG 2522/2524 VRB03KT RMK NXT FCST WILL BE ISSUED AT 261145Z CYLK 251838Z 2519/2524 14005KT P6SM FEW010 BKN060 TEMPO 2519/2521 P6SM -SHRA RMK NXT FCST WILL BE ISSUED AT 261545Z CYLW 260038Z 2601/2613 34015KT P6SM SCT240 BECMG 2603/2605 VRB03KT RMK FCST BASED ON AUTO OBS. NXT FCST BY 260700Z CYMH 251939Z 2520/2603 33005KT P6SM FEW050 BECMG 2520/2522 25012KT RMK FCST BASED ON AUTO OBS. NXT FCST WILL BE ISSUED AT 260845Z CYMM 260038Z 2601/2613 20008KT P6SM BKN060 OVC120 TEMPO 2601/2608 P6SM -SHRA SCT030 OVC060 FM260800 29012KT P6SM -SHRA SCT020 OVC040 TEMPO 2608/2613 5SM -SHRA BR SCT008 OVC020 RMK FCST BASED ON AUTO OBS. NXT FCST BY 260700Z CYMT 251738Z 2518/2524 18015G25KT P6SM -RA OVC010 TEMPO 2518/2523 4SM -SHRA BR OVC007 FM252300 20012G22KT 4SM -RA -DZ BR OVC005 TEMPO 2523/2524 6SM BR OVC010 RMK FCST BASED ON AUTO OBS. NXT FCST WILL BE ISSUED AT 261145Z CYNA 260138Z 2602/2614 18015G25KT P6SM BKN210 TEMPO 2602/2606 P6SM -SHRA BKN030 OVC120 FM260600 20012G22KT P6SM -RA OVC010 TEMPO 2606/2614 3SM -RA BR OVC006 BECMG 2609/2611 21015G25KT RMK FCST BASED ON AUTO OBS. NXT FCST BY 260800Z CYND 251738Z 2518/2601 10010KT 2SM -RA BR OVC003 TEMPO 2518/2601 6SM BR SCT003 OVC008 PROB30 2518/2521 OVC002 RMK NXT FCST WILL BE ISSUED AT 261245Z CYNE 260038Z 2601/2613 36005KT P6SM SCT012 BKN100 TEMPO 2601/2604 6SM -SHRA BKN012 BKN100 FM260400 32005KT P6SM SCT008 BKN025 TEMPO 2604/2613 BKN008 BKN025 PROB30 2610/2613 1/2SM FG RMK FCST BASED ON AUTO OBS. NXT FCST BY 260700Z CYOA 252203Z 2522/2523 22005KT P6SM BKN012 TEMPO 2522/2523 11/2SM -RASN BR OVC008 RMK NXT FCST WILL BE ISSUED AT 261245Z CYOC 251739Z 2518/2601 04012G22KT P6SM SCT015 BKN050 TEMPO 2518/2601 4SM -SN OVC015 RMK NXT FCST WILL BE ISSUED AT 261445Z CYOJ 260038Z 2601/2613 29008KT P6SM SCT070 BKN100 TEMPO 2601/2604 P6SM -SHRA BKN050 FM260400 33008KT P6SM SCT050 RMK NXT FCST BY 260700Z CYOW 260118Z 2601/2624 12007KT P6SM SCT012 OVC025 TEMPO 2601/2607 4SM -RA BR OVC012 FM260700 18012KT 21/2SM -RA BR OVC007 TEMPO 2607/2615 6SM -RA BR OVC012 PROB30 2607/2611 VRB15G25KT 1SM +TSRA BR OVC005CB FM261500 20012G22KT 6SM -RA BR OVC015 PROB30 2617/2619 VRB25G35KT 2SM TSRA BR OVC008CB FM261900 23015G25KT P6SM OVC025 FM262000 26020G30KT P6SM FEW030 BECMG 2622/2624 26015G25KT RMK NXT FCST BY 260300Z CYOY 252140Z 2519/2606 FCST CNCLD DUE CLD HGT SENSOR INOP RMK NXT FCST WILL BE ISSUED AT 261215Z CYPA 260038Z 2601/2613 30006KT P6SM FEW060 FEW250 FM260600 23008KT P6SM BKN060 OVC100 TEMPO 2606/2610 P6SM -SHRA OVC060 FM261000 29012KT P6SM SCT040 BKN080 RMK NXT FCST BY 260700Z CYPC 251838Z 2519/2523 09005KT P6SM SCT007 BKN050 TEMPO 2519/2523 3SM -SN BR BKN007 OVC050 BECMG 2519/2521 36010KT RMK NXT FCST WILL BE ISSUED AT 261445Z CYPE 260038Z 2601/2613 26012KT P6SM FEW070 BKN200 RMK NXT FCST BY 260700Z CYPG 252226Z 2518/2606 FCST CNCLD DUE END OF FLYING PROGRAM RMK NXT FCST WILL BE ISSUED AT 261215Z CYPL 252211Z 2522/2602 30006KT P6SM SCT006 OVC020 TEMPO 2522/2601 5SM -SHRA BR OVC006 FM260100 30006KT P6SM SCT009 OVC025 TEMPO 2601/2602 OVC009 RMK NXT FCST WILL BE ISSUED AT 261245Z CYPQ 251938Z 2520/2602 16010KT 3SM -SHRA BR BKN004 OVC012 TEMPO 2520/2602 6SM BR SCT004 OVC012 RMK FCST BASED ON AUTO OBS. NXT FCST WILL BE ISSUED AT 260945Z CYPR 260038Z 2601/2613 VRB03KT P6SM SCT020 OVC030 TEMPO 2601/2606 5SM -RA BR BKN020 OVC030 FM260600 VRB03KT P6SM -RA SCT007 OVC020 TEMPO 2606/2613 3SM -RA BR BKN007 OVC020 RMK FCST BASED ON AUTO OBS. NXT FCST BY 260700Z CYPX 260112Z 2601/2612 03015KT P6SM OVC012 TEMPO 2601/2606 P6SM -RA SCT012 OVC040 FM260600 36015KT P6SM SCT015 TEMPO 2606/2612 3SM -SN BKN015 RMK FCST BASED ON AUTO OBS. NXT FCST BY 260600Z CYQA 252011Z 2520/2602 13010KT 21/2SM -RA BR OVC004 TEMPO 2520/2522 6SM BR SCT004 OVC008 FM252200 15010KT 2SM -RA BR OVC004 TEMPO 2522/2602 6SM BR VCTS OVC008CB RMK FCST BASED ON AUTO OBS. NXT FCST WILL BE ISSUED AT 261145Z CYQD 260038Z 2601/2613 28012KT P6SM BKN040 OVC070 FM260400 28006KT P6SM BKN030 FM261200 18006KT P6SM BKN030 BKN120 TEMPO 2612/2613 P6SM -SHRA BKN020 BKN120 RMK FCST BASED ON AUTO OBS. NXT FCST BY 260700Z CYQG 260142Z 2601/2624 28012G22KT 6SM -SHRA SCT005 OVC030 TEMPO 2601/2602 VRB15G25KT 2SM +TSRA BR BKN005 OVC030CB FM260200 21012G22KT P6SM SCT012 BKN040 TEMPO 2602/2609 3SM SHRA VCTS BR BKN008 OVC040CB FM260900 27012G22KT P6SM BKN020 BECMG 2611/2613 29015G25KT FM261500 29015G25KT P6SM BKN025 FM261800 28015G25KT P6SM SCT030 BECMG 2621/2623 28010KT RMK FCST BASED ON AUTO OBS. NXT FCST BY 260600Z CYQK 260138Z 2602/2614 29005KT P6SM BKN040 TEMPO 2602/2612 6SM -SHRA BR BKN020 PROB30 2604/2612 2SM BR OVC004 RMK NXT FCST BY 260800Z CYQT 260138Z 2602/2614 27005KT P6SM -SHRA OVC030 TEMPO 2602/2605 5SM -SHRA BR OVC020 FM260500 30008KT P6SM BKN030 TEMPO 2605/2610 6SM -SHRA BR OVC020 FM261000 26010KT P6SM BKN030 TEMPO 2610/2614 BKN020 BECMG 2612/2614 26010G20KT RMK NXT FCST BY 260800Z CYQU 260038Z 2601/2613 26018G28KT P6SM SCT150 BKN200 FM260600 25012KT P6SM BKN060 OVC150 TEMPO 2606/2613 P6SM -SHRA BKN030 OVC060 RMK NXT FCST BY 260700Z CYQZ 260038Z 2601/2606 VRB03KT P6SM SKC RMK FCST BASED ON AUTO OBS. NXT FCST WILL BE ISSUED AT 261145Z CYRA 251838Z 2519/2524 09004KT P6SM BKN012 TEMPO 2519/2520 BKN009 FM252000 04004KT P6SM BKN012 TEMPO 2520/2522 SCT012 BKN080 FM252200 02005KT P6SM -RA SCT015 OVC060 TEMPO 2522/2524 5SM -RA BR BKN015 OVC040 RMK NXT FCST WILL BE ISSUED AT 261545Z CYRJ 251938Z 2520/2602 20012G22KT 4SM -RA BR OVC020 TEMPO 2520/2602 P6SM -RA OVC025 PROB30 2520/2602 21/2SM SHRA BR RMK NXT FCST WILL BE ISSUED AT 261145Z CYRL 252126Z 2521/2602 30008KT P6SM OVC013 TEMPO 2521/2602 P6SM -SHRA OVC025 BECMG 2600/2602 27005KT RMK NXT FCST WILL BE ISSUED AT 261045Z CYRQ 260138Z 2602/2614 11006KT 6SM BR SCT012 OVC025 TEMPO 2602/2607 21/2SM -RA BR SCT006 OVC012 FM260700 18012KT 6SM -RA BR SCT006 OVC012 TEMPO 2607/2614 2SM -DZ BR OVC006 PROB30 2608/2613 VRB15G25KT 1SM +SHRA BR OVC004 RMK FCST BASED ON AUTO OBS. NXT FCST BY 260800Z CYSB 260140Z 2602/2614 17008KT 1/4SM -DZ -RA FG VV001 TEMPO 2602/2605 2SM BR OVC004 FM260500 17008KT 1/4SM FG VV001 TEMPO 2605/2608 3SM -SHRA BR OVC004 PROB30 2605/2608 VRB15G30KT 1SM TSRA BR BKN002 OVC020CB FM260800 21010KT 1SM -SHRA BR OVC002 FM261000 24012KT P6SM SCT006 BKN010 RMK NXT FCST BY 260800Z CYSJ 260152Z 2601/2612 17012KT P6SM -RA OVC110 TEMPO 2602/2605 3SM -SHRA BR BKN020 OVC040 FM260500 17015KT 4SM -RA BR OVC010 TEMPO 2605/2608 21/2SM -RA -DZ BR OVC005 FM260800 17015KT 2SM -RA -DZ BR OVC003 BECMG 2610/2612 18018G28KT RMK NXT FCST BY 260600Z CYSM 260133Z 2601/2612 VRB03KT P6SM -SHRA BKN050 OVC070 TEMPO 2601/2608 4SM -SHRA BR FEW008 BKN020 OVC040 BECMG 2603/2605 32005KT FM260800 31010KT P6SM SCT006 BKN030 TEMPO 2608/2612 5SM BR BKN006 RMK NXT FCST BY 260600Z CYSN 251938Z 2520/2601 19012G22KT P6SM FEW015 OVC025 TEMPO 2520/2601 5SM -SHRA BR BKN015 OVC040 RMK NXT FCST WILL BE ISSUED AT 261245Z CYSP 251931Z 2519/2521 01008KT 5SM -DZ BR BKN008 OVC015 TEMPO 2519/2521 P6SM NSW BKN025 BKN140 RMK NXT FCST WILL BE ISSUED AT 261345Z CYSY 251838Z 2519/2523 33015KT P6SM SCT005 BKN050 TEMPO 2519/2523 2SM -SN BR BKN005 PROB30 2519/2523 1/2SM -FZDZ FZFG RMK NXT FCST WILL BE ISSUED AT 261445Z CYTE 260038Z 2601/2613 24010KT P6SM SCT005 BKN150 TEMPO 2601/2607 BKN005 BKN120 FM260700 24005KT P6SM BKN030 TEMPO 2607/2613 P6SM -SN BKN005 OVC020 BECMG 2610/2612 36010KT RMK FCST BASED ON AUTO OBS. NXT FCST BY 260700Z CYTH 260038Z 2601/2613 30005KT P6SM SCT020 BKN080 TEMPO 2601/2604 P6SM -SHRA BKN020 BKN080 FM260400 VRB03KT P6SM SCT020 BKN040 TEMPO 2604/2613 BKN020 BKN040 PROB30 2610/2613 1/2SM FZFG VV002 RMK NXT FCST BY 260700Z CYTL 260138Z 2602/2614 31008KT P6SM BKN040 TEMPO 2602/2614 SCT040 RMK FCST BASED ON AUTO OBS. NXT FCST BY 260800Z CYTS 260140Z 2602/2614 VRB03KT P6SM BKN030 TEMPO 2602/2603 5SM -SHRA BR BKN008 OVC020 FM260300 VRB03KT 6SM BR OVC006 TEMPO 2603/2608 2SM -SHRA BR OVC004 PROB30 2603/2608 1SM +TSRA BR OVC003CB FM260800 32012KT 2SM -RA BR OVC004 RMK NXT FCST BY 260800Z CYTZ 260138Z 2602/2702 20008KT 5SM -SHRA BR OVC015 TEMPO 2602/2604 P6SM NSW SCT015 OVC030 FM260400 20012G22KT P6SM -SHRA OVC010 TEMPO 2604/2612 2SM SHRA BR VCTS OVC008CB PROB40 2605/2607 VRB15G25KT 1SM +TSRA BR BKN008 OVC025CB FM261200 24012G22KT P6SM BKN020 BECMG 2612/2614 26015G25KT FM261600 28018G28KT P6SM BKN030 FM261800 28018G28KT P6SM SCT030 BECMG 2622/2624 29012KT RMK FCST BASED ON AUTO OBS. NXT FCST BY 260800Z CYUB 260038Z 2601/2605 36010KT P6SM SCT015 BKN025 TEMPO 2601/2605 4SM -SHSN BKN009 OVC015 RMK NXT FCST WILL BE ISSUED AT 261445Z CYUT 251838Z 2519/2522 32010KT P6SM OVC020 TEMPO 2519/2522 5SM -SN OVC015 RMK NXT FCST WILL BE ISSUED AT 261345Z CYUX 260038Z 2601/2613 32012KT P6SM SCT010 BKN025 TEMPO 2601/2613 4SM -SN BKN008 OVC020 RMK NXT FCST BY 260700Z CYVC 260038Z 2601/2613 29008KT P6SM FEW050 FEW150 SCT220 BECMG 2602/2604 20008KT FM260600 20008KT P6SM BKN040 OVC090 TEMPO 2606/2609 P6SM -SHRA FM260900 20008KT P6SM -RA SCT012 OVC040 TEMPO 2609/2613 5SM -SHRA BR BKN012 OVC040 BECMG 2610/2612 30012G22KT RMK NXT FCST BY 260700Z CYVM 260038Z 2601/2613 19005KT P6SM FEW040 OVC100 RMK FCST BASED ON AUTO OBS. NXT FCST BY 260700Z CYVT 260038Z 2601/2604 20005KT P6SM FEW100 BKN200 FM260300 23010KT P6SM SCT030 BKN060 TEMPO 2603/2604 P6SM -SHRA BKN030 OVC060 RMK NXT FCST WILL BE ISSUED AT 261345Z CYVV 251938Z 2520/2523 21008KT P6SM SCT008 BKN025 TEMPO 2520/2523 2SM -SHRA BR BKN008 OVC020 PROB30 2520/2523 VRB15G25KT 2SM +TSRA BR SCT008 OVC020CB RMK NXT FCST WILL BE ISSUED AT 261045Z CYWE 252121Z 2521/2601 VRB03KT 5SM -RASN BR OVC005 TEMPO 2521/2601 P6SM NSW SCT005 BKN012 RMK FCST BASED ON AUTO OBS. NXT FCST WILL BE ISSUED AT 261245Z CYWG 260024Z 2600/2624 30008KT P6SM BKN050 BKN080 TEMPO 2600/2605 30020G30KT P6SM -SHRA OVC050 FM260500 32010KT P6SM BKN040 BECMG 2608/2610 25010KT FM261700 20010KT P6SM -SHRA BKN012 OVC040 BECMG 2621/2623 34012KT RMK NXT FCST BY 260600Z CYWJ 251738Z 2518/2523 09008KT P6SM -RA SCT006 OVC015 TEMPO 2518/2523 3SM -RASN BR OVC006 BECMG 2521/2523 31010KT RMK NXT FCST WILL BE ISSUED AT 261415Z CYWK 260138Z 2602/2614 20015G25KT 5SM -RA BR BKN015 OVC030 TEMPO 2602/2604 P6SM -RA OVC040 FM260400 21015G25KT 6SM -RA BR OVC015 TEMPO 2604/2606 3SM -DZ BR OVC008 FM260600 22015KT 3SM -DZ BR OVC006 TEMPO 2606/2611 6SM BR OVC010 FM261100 19015G25KT 3SM -RA BR OVC004 TEMPO 2611/2614 6SM -RA BR SCT004 OVC008 RMK NXT FCST BY 260800Z CYWL 260038Z 2601/2613 VRB03KT P6SM FEW050 BKN240 FM260900 VRB03KT P6SM BKN100 RMK NXT FCST BY 260700Z CYXC 260038Z 2601/2613 VRB03KT P6SM SCT200 RMK NXT FCST BY 260700Z CYXJ 260038Z 2601/2613 25012G22KT P6SM FEW060 BKN160 FM260400 26010KT P6SM SCT060 BKN100 RMK NXT FCST BY 260700Z CYXL 260138Z 2602/2614 31006KT P6SM OVC040 TEMPO 2602/2614 6SM -SHRA BR FEW005 OVC020 PROB30 2602/2612 2SM BR OVC004 RMK NXT FCST BY 260800Z CYXP 251838Z 2519/2522 25010KT P6SM -SN OVC020 TEMPO 2519/2522 4SM -SN OVC015 RMK NXT FCST WILL BE ISSUED AT 261245Z CYXR 251738Z 2518/2524 18012G22KT 6SM -RA -DZ BR OVC015 TEMPO 2518/2521 P6SM NSW SCT015 BKN030 FM252100 18012KT P6SM SCT009 BKN030 TEMPO 2521/2524 5SM -RA -DZ BR BKN009 OVC030 RMK FCST BASED ON AUTO OBS. NXT FCST WILL BE ISSUED AT 261145Z CYXS 260038Z 2601/2613 23008KT P6SM FEW150 FM260800 19006KT P6SM FEW050 BKN090 TEMPO 2608/2613 P6SM -SHRA BKN050 OVC090 RMK FCST BASED ON AUTO OBS. NXT FCST BY 260700Z CYXT 260038Z 2601/2613 20006KT P6SM SCT040 BKN100 FM260500 19008KT P6SM SCT030 BKN060 TEMPO 2605/2609 P6SM -SHRA BKN020 OVC050 FM260900 18008KT 5SM -SHRA BR BKN012 OVC030 RMK NXT FCST BY 260700Z CYXU 260207Z 2602/2624 20012G22KT P6SM OVC006 TEMPO 2602/2603 4SM -SHRA BR OVC005 FM260300 20012G22KT 6SM -SHRA BR SCT005 OVC010 TEMPO 2603/2605 VRB20G30KT 1SM +TSRA BR BKN005CB OVC010CB FM260500 21012G22KT P6SM SCT005 OVC010 TEMPO 2605/2610 3SM -SHRA VCTS BR BKN005 OVC010CB FM261000 27012G22KT P6SM BKN008 OVC015 FM261300 29015G25KT P6SM BKN015 FM261600 28015G25KT P6SM BKN030 FM262200 28012KT P6SM SCT040 RMK NXT FCST BY 260600Z CYXZ 251939Z 2520/2524 20008KT 1/2SM -RA -DZ FG VV002 TEMPO 2520/2523 2SM BR BKN006 OVC050 FM252300 VRB03KT 1/2SM -RA FG VV002 TEMPO 2523/2524 2SM -SHRA BR OVC004 PROB30 2523/2524 1/2SM TSRA FG OVC002CB RMK NXT FCST WILL BE ISSUED AT 261245Z CYYB 260140Z 2602/2614 15008KT 11/2SM -SHRA BR OVC004 TEMPO 2602/2612 6SM BR OVC006 PROB30 2604/2609 VRB15G30KT 1SM TSRA BR BKN003 OVC020CB FM261200 24015KT 6SM BR BKN008 OVC020 RMK NXT FCST BY 260800Z CYYD 260038Z 2601/2606 VRB03KT P6SM FEW080 BKN120 RMK NXT FCST WILL BE ISSUED AT 261345Z CYYE 260038Z 2601/2613 29012G22KT P6SM FEW080 BKN160 FM260500 27008KT P6SM SCT160 RMK NXT FCST BY 260700Z CYYF 260038Z 2601/2613 35008KT P6SM FEW200 BECMG 2604/2606 VRB03KT RMK NXT FCST BY 260700Z CYYL 260038Z 2601/2613 32005KT P6SM BKN060 FM260600 VRB03KT P6SM BKN040 TEMPO 2606/2613 BKN020 PROB30 2609/2613 1/2SM FG VV002 RMK FCST BASED ON AUTO OBS. NXT FCST BY 260700Z CYYR 260212Z 2602/2624 21015G25KT P6SM -RA -PL OVC080 BECMG 2602/2604 P6SM -RA SCT020 OVC050 FM260800 22015KT P6SM SCT020 OVC040 BECMG 2612/2614 22018G30KT FM262000 19015G30KT P6SM -SHRA OVC025 RMK NXT FCST BY 260600Z CYYU 260140Z 2602/2614 36005KT 5SM -SHRA BR BKN004 OVC020 TEMPO 2602/2604 P6SM NSW BKN008 OVC020 FM260400 01008KT 6SM -RA BR OVC006 TEMPO 2604/2614 11/2SM SHRA BR OVC003 RMK NXT FCST BY 260800Z CYYY 260138Z 2602/2614 20008KT P6SM -RA FEW015 OVC040 TEMPO 2602/2606 3SM -RA BR OVC015 FM260600 19012KT 3SM -RA BR OVC015 TEMPO 2606/2614 6SM -RA BR OVC025 PROB30 2606/2614 2SM -RA -DZ BR OVC008 RMK NXT FCST BY 260800Z CYYZ 260138Z 2601/2706 20007KT P6SM OVC012 TEMPO 2601/2603 6SM -SHRA BR OVC008 FM260300 20010G20KT P6SM -SHRA OVC010 TEMPO 2603/2612 21/2SM SHRA BR VCTS OVC008CB PROB30 2605/2607 VRB15G25KT 1SM +TSRA BR BKN008 OVC025CB FM261200 25012G22KT P6SM BKN020 BECMG 2612/2614 28018G28KT FM261600 29018G28KT P6SM BKN030 FM262200 28015KT P6SM SCT040 BECMG 2701/2703 28005KT RMK NXT FCST BY 260300Z CYZE 252053Z 2520/2522 18006KT 2SM BR BKN003 OVC008 TEMPO 2520/2522 P6SM NSW FEW003 SCT008 RMK FCST BASED ON AUTO OBS. NXT FCST WILL BE ISSUED AT 260945Z CYZH 260038Z 2601/2613 VRB03KT P6SM FEW180 SCT250 BECMG 2601/2603 28012G22KT FM260500 28015KT P6SM BKN080 FM261000 28015KT P6SM FEW050 RMK FCST BASED ON AUTO OBS. NXT FCST BY 260700Z CYZP 260038Z 2601/2613 14006KT P6SM BKN040 OVC140 FM260600 25010KT P6SM SCT015 OVC080 TEMPO 2606/2613 BKN015 OVC080 RMK FCST BASED ON AUTO OBS. NXT FCST BY 260700Z CYZR 260132Z 2601/2602 18012KT 6SM -SHRA BR BKN010 OVC025 TEMPO 2601/2602 VRB15G25KT 1SM +TSRA BR BKN008 OVC025CB RMK FCST BASED ON AUTO OBS. NXT FCST WILL BE ISSUED AT 260745Z CYZS 260038Z 2601/2613 34005KT P6SM SCT010 OVC025 TEMPO 2601/2613 P6SM -SN BKN009 OVC020 RMK NXT FCST BY 260700Z CYZT 260038Z 2601/2613 35008KT P6SM FEW003 SCT240 FM260600 26006KT P6SM SCT005 SCT010 TEMPO 2606/2613 2SM BR BKN005 PROB40 2606/2613 1/4SM FG VV002 RMK NXT FCST BY 260700Z CYZU 251838Z 2519/2523 31012KT P6SM FEW040 RMK NXT FCST WILL BE ISSUED AT 261415Z CYZV 260128Z 2601/2624 15010KT P6SM -RA OVC030 TEMPO 2601/2603 5SM -RA BR OVC015 FM260300 22008KT 6SM -RA BR OVC015 TEMPO 2603/2606 3SM -RA BR OVC008 FM260600 19006KT 1SM -RA -DZ BR OVC003 FM260900 18005KT 3/4SM -RA -DZ BR OVC002 PROB40 2609/2614 1/4SM -DZ FG VV001 FM261400 12010KT 1SM -RA -DZ BR OVC003 PROB30 2618/2624 1/4SM -DZ FG VV001 RMK NXT FCST BY 260600Z CYZW 251739Z 2518/2601 26008KT P6SM FEW080 SCT140 BKN200 RMK NXT FCST WILL BE ISSUED AT 261445Z CYZX 260138Z 2601/2624 17010KT P6SM -SHRA SCT020 OVC100 FM260900 17015G25KT P6SM -SHRA OVC020 FM261200 18015G25KT 6SM -SHRA BR OVC015 FM261800 20015G25KT 4SM -SHRA BR OVC012 RMK NXT FCST BY 260600Z CYZY 260038Z 2601/2609 22006KT P6SM FEW140 FM260400 18006KT P6SM FEW050 BKN100 RMK FCST BASED ON AUTO OBS. NXT FCST BY 260700Z CZBF 251938Z 2520/2603 20012G22KT P6SM BKN200 FM260100 20008KT P6SM SCT030 OVC080 RMK FCST BASED ON AUTO OBS. NXT FCST WILL BE ISSUED AT 260845Z CZFA 251739Z 2518/2601 VRB03KT WS005/28012G22KT P6SM SCT060 BKN120 RMK NXT FCST WILL BE ISSUED AT 261445Z CZFM 251840Z 2519/2523 36010KT P6SM SCT010 OVC040 TEMPO 2519/2523 5SM -SHSN BR BKN009 OVC040 RMK NXT FCST WILL BE ISSUED AT 261445Z CZMD 251538Z 2516/2522 26005KT P6SM BKN040 OVC060 BECMG 2517/2519 28008KT RMK FCST BASED ON AUTO OBS. NXT FCST WILL BE ISSUED AT 260945Z CZMT 251838Z 2519/2524 VRB03KT P6SM FEW080 BKN200 FM252100 31005KT P6SM SCT020 BKN200 TEMPO 2521/2524 P6SM -RA BKN020 OVC200 RMK NXT FCST WILL BE ISSUED AT 261415Z CZSJ 251538Z 2516/2522 26005KT P6SM OVC025 TEMPO 2516/2518 OVC020 BECMG 2517/2518 28008KT RMK FCST BASED ON AUTO OBS. NXT FCST WILL BE ISSUED AT 260945Z CZUM 260138Z 2602/2614 FCST NOT AVBL DUE NO OBS RMK FCST BASED ON AUTO OBS. NXT FCST BY 260800Z DAUZ 260130Z 2601/2624 09008KT 9999 FEW046 TEMPO 0401/0405 15015G30KT 5000 -TSRA FEW033CB PROB40 TEMPO 2608/2613 12015G30KT 3000 DRSA FEW046CB PROB30 TEMPO 2613/2618 5000 -TSRA FEW040CB BECMG 2621/2624 03014KT DNPO 251550Z 2518/2624 20003KT 8000 TS BKN008 FEW019CB TEMPO 2519/2522 5000 -TSRA BECMG 2523/2601 NSW SCT008 TEMPO 2604/2607 5000 BR BECMG 2608 2610 BKN010 FEW020CB EDLV 252255Z 2522/2618 CNL EDLW 252052Z 2520/2618 CNL= LFRQ 252056Z 2520/2618 CNL EDSB 252302Z 2523/2618 CNL= EGGP 252300Z 2600/2624 17007KT 9999 FEW035 BECMG 2608/2611 25012KT BECMG 2617/2620 18004KT EGPF 260150Z 2601/2624 21015KT 9999 BKN018 TEMPO 2601/2624 7000 -RA BKN012 TEMPO 2601/2618 23023G35KT PROB40 TEMPO 2601/2618 2500 RADZ BKN004 EGQS 260143Z 2603/2621 25014KT 9999 SCT040 TEMPO 2603/2621 SCT022 PROB30 TEMPO 2604/2621 7000 RA SCT014 EGUL 251959Z 2520/2702 20009KT 9999 FEW030 QNH3050INS BECMG 2601/2602 23009KT 9999 SCT090 QNH3047INS BECMG 2608/2609 25010G15KT 9999 FEW060 QNH3042INS BECMG 2614/2615 25009KT 9999 SCT035 QNH3040INS BECMG 2617/2618 VRB06KT 9999 BKN030 QNH3040INS TX21/2615Z TN10/2606Z EGUN 251959Z 2520/2702 20009KT 9999 FEW030 QNH3050INS BECMG 2601/2602 23009KT 9999 SCT090 QNH3047INS BECMG 2608/2609 25010G20KT 9999 FEW060 QNH3042INS BECMG 2614/2615 25009KT 9999 SCT035 QNH3040INS BECMG 2617/2618 VRB06KT 9999 BKN030 QNH3040INS TX21/2615Z TN10/2606Z EGVN 260120Z 2603/2703 26005KT CAVOK PROB40 2604/2608 3000 BR PROB30 2605/2607 0500 FG BKN000 PROB30 2701/2703 7000 HZ EGVO 252111Z 2521/2609 CNL EGWU 252208Z 2521/2615 CNL= LIBC 252211Z 2523/2618 01022G32KT 9999 FEW040 EGXC 260131Z 2603/2621 21010KT 9999 SCT040 EGXW 260118Z 2603/2621 23014KT CAVOK PROB40 TEMPO 2603/2612 23015G25KT PROB30 TEMPO 2612/2618 SCT022 EGYP 260116Z 2603/2621 21014KT 9999 SCT025 TEMPO 2603/2621 2000 -SHSN SCT006 BKN020 PROB40 TEMPO 2603/2615 0500 SHSN BKN001 BKN014CB EHEH 252321Z 2600/2706 VRB03KT CAVOK BECMG 2607/2610 22006KT EHKD 260044Z 2601/2613 18008KT 9999 SCT035 BECMG 2604/2607 23017KT PROB40 TEMPO 2407/2413 24018G28KT EHVK 260048Z 2601/2613 VRB03KT CAVOK BECMG 2607/2610 22006KT EINN 260204Z 2602/2624 19010KT 9999 BKN015 TEMPO 2602/2610 BKN012 PROB30 TEMPO 2602/2607 5000 -RADZ BR BECMG 2612/2614 25006KT BECMG 2616/2618 VRB03KT EKKA 260207Z 2603/2624 23012G25KT 9999 BKN030 BECMG 2603/2604 24018G32KT TEMPO 2606/2610 24022G36KT TEMPO 2610/2614 24022G36KT -RADZ BKN012 TEMPO 2614/2624 4000 -RADZ BKN008 BECMG 2617/2620 27012KT EKSP 260207Z 2603/2624 24015G30KT 9999 BKN030 TEMPO 2606/2612 24022G36KT TEMPO 2612/2616 24020G32KT 6000 -RADZ BKN012 TEMPO 2616/2624 4000 -RADZ BKN008 BECMG 2618/2621 27012KT EKYT 260207Z 2603/2624 24025G38KT 9999 BKN030 TEMPO 2603/2609 6000 -RADZ BECMG 2609/2612 25020G32KT BKN012 TEMPO 2612/2618 4000 -RADZ BKN006 BECMG 2618/2620 27015G25KT FEW012 BKN050 ENOA 2601/2624 21035KT 7000 -RA SCT005 BKN010 TEMPO 2601/2603 1000 RADZ BR BKN004 BECMG 2601/2604 SCT012 BKN025 ENSB 260201Z 2602/2624 23008KT 9999 SCT012 BKN020 TEMPO 2602/2609 1500 SHSN VV008 TEMPO 2602/2624 30010KT EPLL 260133Z 2601/2624 VRB02KT 7000 NSC TEMPO 2602/2606 3000 BR BECMG 2607/2609 24012KT TEMPO 2610/2616 25015G25KT ETAD 251903Z 2519/2701 09006KT 9999 SKC QNH3060INS BECMG 2602/2603 05006KT 9999 SKC QNH3056INS BECMG 2607/2608 VRB06KT 9999 SKC QNH3053INS TX15/2615Z TN03/2605Z ETAR 260202Z 2602/2708 10006KT 9999 SKC QNH3050INS BECMG 2615/2616 19006KT 9999 SKC QNH3043INS TX16/2615Z TNM01/2603Z ETEB 252138Z 2521/2703 05009KT 9999 SCT030 QNH3051INS BECMG 2615/2616 20009KT 9999 SKC QNH3048INS TX16/2613Z TN03/2603Z LIMITED METWATCH AFT 2521 NEXT 2606 ETIC 252203Z 2522/2704 VRB06KT 9999 FEW080 QNH3060INS BECMG 2613/2614 21009KT 9999 SKC QNH3046INS TX13/2613Z TNM02/2603Z ETIK 252101Z 2521/2703 05009KT 9999 FEW050 QNH3051INS BECMG 2618/2619 20009KT 9999 SKC QNH3048INS TX16/2613Z TN01/2603Z ETOU 251903Z 2519/2701 10006KT 9999 FEW080 QNH3061INS BECMG 2523/2524 VRB06KT 9999 SKC QNH3055INS TX15/2615Z TN04/2604Z EVLA 260201Z 2603/2703 25015KT 9999 SCT025 BECMG 2604/2606 25020G32KT TEMPO 2606/2610 25025G40KT TEMPO 2610/2618 25025G40KT 4000 RA BKN007 OVC020 PROB40 TEMPO 2612/2618 25025G50KT TEMPO 2618/2621 27020G40KT EVRA 260206Z 2603/2703 21007KT 9999 SCT030 BECMG 2607/2609 21017KT TEMPO 2610/2618 22017G30KT 4000 RA BKN007 OVC020 BECMG 2618/2620 27012KT TEMPO 2618/2624 27015G28KT FEFF 252300Z 2600/2706 VRB03KT 9999 FEW004 TEMPO CAVOK BECMG 2604/2606 3000 BR FM260900 20006KT 9999 SCT023 FGBT 251700Z 2518/2618 22008KT 9999 SCT010 TEMPO 2520/2602 BKN010 FEW020CB TEMPO 2608/2616 4000 RADZ BKN008 FEW018CB FGSL 252300Z 2600/2706 23008KT 9999 SCT010 FEW020CB TEMPO 2603/2609 4000 TSRA BKN008 FEW016CB BECMG 2609/2611 BKN010 FEW020CB TEMPO 2614/2620 4000 TSRA SCT008 FEW018CB BECMG 2620/2622 TS SCT010 FEW020CB TEMPO 2700/2706 4000 TSRA BKN008 FEW016CB FJDG 251700Z 2517/2623 14006KT 6000 RA SCT015 BKN040 OVC075 QNH2985INS TEMPO 2517/2521 14015G25KT 9999 VCSH SCT020 BKN050 OVC080 BECMG 2521/2522 13012KT 9999 VCSH SCT020 BKN050 OVC080 QNH2983INS TEMPO 2522/2604 14015G25KT 8000 -SHRA SCT015 BKN045 OVC080 TX29/2609Z TN24/2523Z FNBG 260040Z 2600/2612 VRB03KT 9000 FEW020 BKN025 TEMPO 2603/2607 27010KT 4000 BR FEW015 BECMG 2610/2612 33012KT 8000 SCT018 BKN020 FNGI 252345Z 2600/2612 VRB03KT 9000 FEW020 BECMG 2610/2612 10005KT CAVOK FNSO 252345Z 2600/2612 VRB03KT 8000 FEW020 BKN040 TEMPO 2603/2607 5000 BR FEW015 BKN025 BECMG 2610/2612 26005KT 9999 FEW025 SCT030 FOOG 252300Z 2600/2624 20010KT 9999 SCT011 BKN030 PROB30 TEMPO 2614/2618 TS SCT011 FEW020CB BKN030 FOOL 252300Z 2600/2706 22008KT 9999 SCT011 BKN030 PROB30 TEMPO 2602/2608 4000 RA BKN008 FEW020CB OVC026 TEMPO 2614/2618 TS SCT011 FEW020CB BKN030 GCFV 260200Z 2603/2703 35007KT CAVOK TX29/2614Z TN23/2606Z BECMG 2608/2610 05010KT BECMG 2617/2619 35011KT PROB30 TEMPO 2603/2608 BKN009 GCGM 260200Z 2603/2703 26002KT CAVOK TX29/2614Z TN22/2605Z= GCHI 260200Z 2603/2703 33010KT CAVOK TX28/2614Z TN23/2605Z BECMG 2608/2610 09006KT BECMG 2618/2620 33012KT PROB40 TEMPO 2603/2608 BKN008 GCHI 260200Z 2603/2703 33010KT CAVOK TX28/2614Z TN23/2605Z BECMG 2608/2610 09006KT BECMG 2618/2620 33012KT PROB40 TEMPO 2603/2608 BKN008 GCLA 260200Z 2603/2703 36005KT CAVOK TX29/2614Z TN24/2605Z TEMPO 2603/2609 BKN012 GCLP 260200Z 2603/2703 01012KT CAVOK TX29/2614Z TN22/2605Z PROB30 TEMPO 2603/2608 BKN009 GCRR 260200Z 2603/2703 33008KT CAVOK TX32/2614Z TN22/2606Z BECMG 2609/2611 14010KT BECMG 2616/2618 35015KT GCTS 260200Z 2603/2703 04008KT CAVOK TX29/2614Z TN22/2606Z BECMG 2609/2611 10015KT BECMG 2619/2621 04005KT GCXO 260200Z 2603/2703 27009KT CAVOK TX29/2614Z TN18/2605Z PROB30 TEMPO 2608/2616 12010KT PROB30 TEMPO 2603/2608 1500 BCFG BKN001 GEML 260200Z 2603/2703 07015KT 9999 SCT015 TX28/2612Z TN24/2620Z PROB40 TEMPO 2603/2618 07015G25KT GFLL 251700Z 2518/2624 27010KT 9999 TS BKN012 FEW026CB PROB30 TEMPO 2519/2523 12012KT 8000 RA BKN010 TEMPO 2601/2604 09009KT BKN011 TEMPO VRB04KT 9999 BKN012 FEW027CB GMFF 252300Z 2600/2706 08006KT 9999 FEW033 BECMG 2601/2603 CAVOK BECMG 2610/2614 02010KT SCT030 PROB30 TEMPO 2615/2620 SCT030 FEW040CB SCT200 BECMG 2623/2702 08006KT CAVOK GMME 251700Z 2518/2700 34008KT 8000 SCT015 TEMPO 2600/2608 VRB02KT 3000 BR BKN008 BECMG 2608/2612 14010KT 8000 SCT090 HEAX 252300Z 2600/2706 33006KT 9999 SCT020 HECA 252300Z 2600/2706 35008KT CAVOK TEMPO 2600/2608 VRB03KT 4000 BR SCT025 PROB40 2603/2607 2000 HELX 252300Z 2600/2706 33008KT CAVOK HSKA 251700Z 2518/2624 VRB03KT 9999 SCT040 BKN140 PROB30 TEMPO 2518/2524 16018G30KT 6000 TSRA FEW040CB BKN140 PROB30 TEMPO 2600/2604 VRB03KT 8000 BKN140 HSPN 251700Z 2518/2624 06006G16KT CAVOK FM252100 32006G16LT FM261100 05008G18KT 8000 NSW HSSS 252300Z 2600/2706 24008G18KT 9999 FEW040 BKN140 TEMPO 2600/2604 6000 SHRA FEW040 BKN140 KABE 260140Z 2602/2624 VRB03KT 1SM BR OVC002 FM261400 20005KT P6SM OVC005 FM261600 22006KT P6SM BKN008 FM261900 24007KT P6SM VCTS OVC020CB PROB30 2619/2624 4SM SHRA OVC025 KACV 260155Z 2602/2624 24003KT 1/4SM FG VV002 FM261600 24005KT 5SM BR OVC004 FM261900 28006KT 6SM BR SCT004 KACY 260140Z 2602/2624 17005KT P6SM VCSH FEW035 BKN200 TEMPO 2603/2605 BKN015 FM260500 VRB04KT P6SM BKN008 FM260800 VRB04KT P6SM BKN003 FM261500 22005KT P6SM BKN035 FM261800 21007KT P6SM SCT130 KADW 260102Z 2601/2707 17006KT 9999 OVC030 QNH3008INS BECMG 2603/2604 18006KT 9999 BKN010 OVC020 QNH2999INS BECMG 2613/2614 21012KT 9999 BKN020 QNH2989INS BECMG 2619/2620 27012KT 8000 -SHRA BKN020 OVC030 QNH2989INS TEMPO 2620/2701 30012G18KT -TSRA OVC020CB TX32/2621Z TN22/2611Z KAFF 2600/2701 17012KT 9999 SKC QNH3016INS WND 200V090 BECMG 2602/2603 VRB06KT 9999 SCT060 SCT240 QNH3030INS BECMG 2611/2612 14009KT 9999 SCT015 BKN020 QNH3032INS BECMG 2614/2615 16012KT 9999 FEW015 SCT030 QNH3032INS BECMG 2619/2620 16012G18KT 9999 FEW030 QNH3023INS TX15/2600Z TN02/2613Z LAST NO AMDS AFT 2600 NEXT 2611 KAMA 260156Z 2602/2624 04012KT P6SM FEW200 FM260500 05011KT P6SM VCSH BKN110 PROB30 2611/2615 5SM -SHRA OVC050 FM261500 07009KT P6SM VCSH OVC060 FM261800 10007KT P6SM BKN060 OVC100 FM262100 10008KT P6SM SCT070 KAOO 260136Z 2602/2624 19004KT P6SM SCT015 BKN120 FM261100 20006KT 4SM -SHRA BKN015 OVC025 FM261500 22010G17KT 5SM -RA BR BKN025 OVC040 TEMPO 2618/2620 26015G25KT 1 1/2SM TSRA OVC025CB FM262100 29012G19KT P6SM BKN025 KARA 260138Z 2602/2624 VRB05KT P6SM VCSH SCT025 BKN120 FM260400 VRB03KT P6SM SCT100 BKN250 TEMPO 2609/2613 4SM BR SCT012 FM261300 VRB05KT P6SM VCTS SCT025CB BKN050 TEMPO 2613/2617 3SM TSRA BKN025CB FM261800 20007KT P6SM VCTS SCT035CB BKN100 KART 260223Z 2602/2624 17010KT P6SM OVC035 FM260500 18013G19KT P6SM VCSH OVC025 FM260800 20016G24KT 6SM -SHRA OVC015 FM261800 23015G25KT P6SM OVC015 FM262100 26015G25KT P6SM BKN040 KATL 260145Z 2602/2706 14006KT P6SM SCT050 BKN080 FM260900 19004KT P6SM BKN015 BKN030 FM261400 23005KT P6SM BKN035 BKN100 FM261700 24006KT P6SM SHRA BKN040 PROB30 2619/2623 4SM TSRA BKN030CB FM270000 28005KT P6SM SHRA OVC040 KATW 260114Z 2601/2624 30009KT P6SM OVC020 TEMPO 2601/2603 BKN008 FM260300 31010G16KT P6SM BKN025 FM260600 30009G16KT P6SM SCT025 FM261600 28009G15KT P6SM SCT025 KAZO 260152Z 2602/2624 22008KT P6SM -SHRA SCT025 BKN040 FM260600 26018G28KT P6SM VCSH OVC015 FM261200 32015G25KT P6SM BKN025 FM261800 28013KT P6SM OVC050 KBAB 251903Z 2519/2701 VRB06KT 9999 SKC QNH2979INS TX35/2523Z TN15/2612Z KBAD 260200Z 2602/2708 16006KT 9999 SCT015 SCT160 QNH2993INS BECMG 2606/2607 230006KT 9999 FEW008 SCT010 BKN050 BKN080 QNH2996INS BECMG 2611/2612 33010G15KT 8000 -SHRA VCTS SCT010 BKN025CB BKN060 QNH3000INS TEMPO 2612/2616 VRB12G18KT 6000 -TSRA BKN020CB OVC060 BECMG 2616/2617 01012KT 9999 NSW BKN030 BKN050 QNH3003INS TX28/2621Z TN20/2611Z KBDL 260214Z 2602/2706 16004KT 3SM BR VCSH OVC003 FM260900 18005KT 2SM BR OVC008 FM261600 19009KT 6SM BR VCSH BKN010 FM262000 19010G19KT P6SM VCSH BKN020 FM262300 19008KT 6SM -SHRA BR OVC015 FM270100 22007KT 4SM -SHRA BR OVC020 FM270400 31007KT 6SM BR VCSH BKN090 KBDR 260208Z 2602/2624 VRB05KT P6SM SCT008 BKN050 TEMPO 2604/2606 3SM BR BKN008 FM260600 17007KT 3SM BR BKN008 FM261300 19010KT P6SM BKN010 BKN020 FM261800 19010KT P6SM VCSH BKN030 KBIF 2522/2704 27010G15KT 9999 BKN130 QNH2994INS BECMG 2603/2604 07015G25KT 9999 BKN110 520009 QNH3002INS TEMPO 2606/2612 8000 -SHRA VCTS SCT050CB BKN090 BECMG 2614/2615 07015G25KT 9999 SKC 520009 QNH3005INS TX23/2618Z TN16/2612Z KBIS 260104Z 2601/2624 29009KT P6SM VCSH FEW045 SCT060 FM260200 29006KT P6SM FEW060 FM260800 26005KT P6SM SKC FM261000 VRB04KT P6SM FEW200 FM261400 25006KT P6SM FEW200 FM261700 25018G28KT P6SM BKN090 KBIX 260200Z 2602/2708 24006KT 9999 SCT020 SCT200 QNH3000INS BECMG 2607/2608 22006KT 9000 -SHRA BKN025 BKN080 BKN160 QNH3002INS BECMG 2615/2616 23009KT 8000 -SHRA VCTS BKN025CB BKN060 OVC100 QNH3000INS TEMPO 2617/2619 VRB12G18KT 6000 -TSRA BKN020CB BECMG 2621/2622 20006KT 9999 NSW BKN020 BKN080 BKN160 QNH2998INS BECMG 2623/2624 22006KT 9000 -SHRA SCT025 BKN050 BKN180 QNH2997INS TX29/2620Z TN23/2611Z LAST NO AMDS AFT 2604 NEXT 2610 KBKF 260128Z 2601/2707 12009KT 9999 SKC QNH3027INS BECMG 2609/2610 19012KT 9999 SCT060 BKN150 QNH3036INS BECMG 2616/2617 22009KT 9999 SKC QNH3026INS BECMG 2701/2702 12009KT 9999 SKC QNH3010INS TX22/2700Z TN09/2612Z KBLV 260000Z 2600/2706 22012KT 9999 FEW020 BKN040 QNH2985INS BECMG 2605/2606 32015G25KT 9000 -SHRA OVC020 QNH2982INS BECMG 2610/2611 34010G15KT 9999 NSW FEW030 FEW150 QNH3013INS TX25/2600Z TN13/2612Z KBMG 260202Z 2602/2624 19008KT P6SM VCTS BKN010CB FM260500 22009KT P6SM VCTS BKN008CB FM260800 26010KT P6SM VCSH BKN008 FM261100 31010KT P6SM BKN008 FM261500 33007KT P6SM SCT035 LTD TO CLD VIS AND WIND TIL 261300 KBMI 260105Z 2601/2624 28010KT P6SM VCTS SCT025CB BKN050 TEMPO 2601/2602 3SM TSRA BR BKN025CB FM260300 31015KT P6SM OVC025 FM261200 32009KT P6SM SCT200 KBNA 252340Z 2600/2624 17006KT P6SM VCSH SCT050 BKN150 BKN250 FM260900 21005KT 4SM -TSRA BR BKN007 BKN030CB FM261300 28005KT 4SM -SHRA BR OVC007 FM261800 35007KT P6SM VCSH OVC007 FM262200 36008KT P6SM OVC015 KBOS 260209Z 2602/2706 14011KT 4SM RA BKN009 OVC016 WS020/16035KT FM260500 18009KT 3SM -SHRA OVC010 FM261600 20012G24KT P6SM VCSH BKN020 FM262300 20012G22KT 6SM BR VCSH BKN010 FM270200 22009KT 4SM -SHRA BR OVC020 FM270400 25008KT 6SM BR VCSH OVC040 FM270500 28008KT P6SM VCSH BKN050 KBRL 260157Z 2602/2624 31013G20KT P6SM BKN015 OVC035 TEMPO 2602/2604 P6SM SCT015 OVC035 FM260400 33011KT P6SM BKN070 OVC100 FM260900 30006KT P6SM FEW250 KBUF 260223Z 2602/2624 20012KT 3SM TSRA OVC025CB FM260300 20012KT P6SM VCSH OVC035 FM260700 20014G22KT P6SM VCSH OVC025 FM261100 21014G22KT 6SM -SHRA OVC012 FM261400 25015G25KT P6SM VCSH OVC015 FM261700 28014G22KT P6SM BKN025 FM262200 29012KT P6SM SCT040 KBVO 260209Z 2602/2624 35010G20KT P6SM BKN060 FM260400 02010KT P6SM BKN050 FM261500 03007KT P6SM BKN250 KCAK 260114Z 2601/2624 19013KT P6SM SCT010 BKN050 FM260300 19014G22KT 5SM -SHRA BR OVC020 TEMPO 2606/2608 2SM -TSRA BR OVC015CB FM260800 22011KT 5SM -SHRA BR OVC009 TEMPO 2608/2610 SCT009 OVC010 FM261400 29014G21KT 5SM BR OVC007 FM261600 29012G20KT P6SM BKN020 FM262100 31011KT P6SM SCT020 SCT070 KCAR 260229Z 2602/2624 17012G20KT 6SM -RA BR OVC007 KCBM 260009Z 2600/2623 18006KT 9999 SCT020 BKN030 QNH2994INS BECMG 2611/2612 VRB06KT 8000 -SHRA BR BKN008 OVC030 QNH2996INS BECMG 2616/2617 03009KT 8000 -SHRA BR BKN020 QNH3000INS TEMPO 2617/2620 03010G15KT 6000 -TSRA OVC020CB TX30/2620Z TN21/2609Z LAST NO AMDS AFT 2601 NEXT 2609 KCEC 260214Z 2602/2624 16014KT 1SM BR OVC002 FM260400 16007KT 1/2SM FG OVC002 FM261500 20005KT 3SM BR BKN002 FM261800 20004KT 6SM BR SCT002 KCEF 260200Z 2602/2708 18009KT 6000 -RA BR OVC003 WS015/18035KT QNH3013INS BECMG 2606/2607 18006KT 4800 BR OVC002 540103 QNH2996INS BECMG 2615/2616 19012G18KT 9999 NSW BKN010 OVC025 QNH2982INS BECMG 2622/2623 18012KT 8000 -SHRA BKN015 OVC030 QNH2981INS BECMG 2701/2702 30006KT 9999 NSW FEW010 SCT035 BKN055 QNH2985INS BECMG 2706/2708 33006KT 9999 FEW020 SCT150 BKN200 QNH2993INS TX26/2619Z TN14/2602Z LAST NO AMDS AFT 2603 NEXT 2610 KCHO 260220Z 2602/2624 00000KT 3SM BR FEW002 SCT030 FM260900 00000KT 1 1/2SM BR BKN008 FM261200 22004KT 2SM BR BKN008 FM261500 22007KT P6SM BKN025 FM262200 24006KT 5SM SHRA OVC040 KCID 260138Z 2602/2624 32014KT P6SM BKN021 OVC080 FM260500 31008KT P6SM FEW200 FM261500 30012KT P6SM FEW250 KCKV 252340Z 2600/2624 VRB05KT P6SM BKN200 FM260800 21005KT 4SM -TSRA BR BKN007 BKN030CB FM261200 31006KT 4SM -SHRA BR OVC007 FM261800 35006KT P6SM VCSH OVC015 FM262100 36010KT P6SM BKN040 KCLE 260112Z 2601/2706 19015KT P6SM SCT018 OVC035 TEMPO 2601/2602 -SHRA SCT018 OVC030 FM260300 19012G20KT 5SM -SHRA SCT015 OVC020 TEMPO 2605/2607 2SM -TSRA BR BKN015CB OVC020 FM260700 21012KT 5SM -SHRA BR OVC010 FM261200 25015G22KT P6SM OVC009 FM261600 31016G23KT P6SM BKN015 OVC020 FM262000 30012G20KT P6SM SCT020 SCT070 KCMH 260125Z 2601/2624 18009KT P6SM VCSH SCT015 BKN025 FM261000 21010KT 5SM -SHRA VCTS OVC008CB FM261400 29012G18KT P6SM VCSH OVC015 FM261800 31012G18KT P6SM BKN025 FM262000 31012KT P6SM SCT035 KCMI 260109Z 2601/2624 20010KT P6SM SCT025 BKN050 FM260200 23010KT P6SM VCTS SCT025CB BKN050 TEMPO 2602/2604 4SM TSRA BKN025CB FM260400 32012KT P6SM BKN025 FM261300 32011KT P6SM SCT200 KCNU 260108Z 2601/2624 34016G26KT P6SM VCSH BKN040 OVC060 FM260300 34015KT P6SM BKN100 FM261000 01006KT P6SM SCT250 KCOF 260200Z 2602/2708 10006KT 9999 SCT040 SCT180 QNH3004INS TEMPO 2602/2608 09009KT 9999 VCSH BKN030 BKN200 BECMG 2607/2608 VRB06KT 9999 FEW040 FEW200 QNH3006INS BECMG 2616/2617 11009KT 9999 VCSH SCT030 SCT200 QNH3004INS TEMPO 2617/2622 12012KT 9000 SHRA BKN030 BKN180 BECMG 2621/2622 11008KT 9999 NSW SCT040 SCT180 QNH3005INS BECMG 2700/2701 10006KT 9999 FEW040 FEW200 QNH3006INS TX31/2619Z TN25/2610Z LAST NO AMDS AFT 2604 NEXT 2610 KCSV 260150Z 2602/2624 17003KT P6SM -SHRA VCTS BKN040 BKN050CB OVC100 FM261100 22005KT 4SM -TSRA BR OVC007CB FM261500 27005KT 4SM -SHRA BR OVC007 FM262000 33004KT P6SM VCSH OVC007 KCVG 260125Z 2601/2706 21011KT P6SM VCSH SCT015 BKN025 FM260900 23011KT 5SM -SHRA VCTS OVC008CB FM261300 29010G16KT P6SM VCSH OVC015 FM261700 32010G16KT P6SM BKN025 FM261900 32010KT P6SM SCT035 FM270000 34004KT P6SM SCT250 KCVS 2602/2708 04015G20KT 9999 BKN040 QNH3017INS BECMG 2604/2605 03015G20KT 9999 BKN040 OVC065 QNH3020INS BECMG 2607/2608 03015G20KT 8000 -RA BR BKN030 OVC055 QNH3013INS BECMG 2608/2609 03012G20KT 6000 SHRA SCT007 OVC010 QNH3017INS TEMPO 2609/2616 1600 +RA BR OVC007 BECMG 2617/2618 04015G25KT 6000 -RA BR OVC008 QNH3013INS BECMG 2621/2622 04015KT 9999 NSW BKN018 OVC030 QNH3015INS TX16/2602Z TN09/2613Z KDAA 260133Z 2601/2707 17006KT 9999 SCT020 BKN030 QNH3008INS TEMPO 2601/2604 0800 FG BKN003 OVC020 BECMG 2605/2606 17006KT 8000 BR BKN009 QNH3005INS BECMG 2606/2607 18009KT 9999 NSW BKN010 OVC025 QNH3004INS BECMG 2613/2614 21012KT 9999 BKN020 QNH2999INS BECMG 2619/2620 27012KT 8000 -SHRA BKN020 OVC030 QNH2990INS TEMPO 2620/2701 30012G18KT -TSRA OVC020CB TX32/2621Z TN18/2611Z LAST NO AMDS AFT 2601 NEXT 2609 KDAY 260125Z 2601/2624 19012G18KT P6SM VCSH SCT015 OVC025 FM260800 22012G18KT 5SM -SHRA VCTS OVC008CB FM261200 29012G18KT P6SM OVC015 FM261600 31012G18KT P6SM BKN025 FM261800 31012KT P6SM SCT035 KDBQ 260139Z 2602/2624 32011G17KT P6SM BKN015 OVC030 FM260300 32012KT P6SM SCT050 BKN090 FM261700 30012KT P6SM SCT060 KDEC 260106Z 2601/2624 23010KT P6SM VCTS SCT025CB BKN050 TEMPO 2601/2603 4SM TSRA BR BKN025CB FM260400 32011KT P6SM OVC025 FM261200 33009KT P6SM SCT200 KDLF 260009Z 2600/2624 13009KT 9999 FEW050 QNH2987INS BECMG 2608/2609 13006KT 9999 BKN007 QNH2989INS BECMG 2610/2611 13006KT 8000 BR BKN005 QNH2992INS BECMG 2613/2614 12009KT 9999 NSW OVC007 QNH2985INS BECMG 2615/2616 11008KT 9999 BKN010 QNH2985INS BECMG 2617/2618 10010KT 9000 -SHRA SCT015 BKN020 QNH2982INS TX33/2600Z TN23/2611Z LAST NO AMDS AFT 2600 NEXT 2610 KDMA 252201Z 2522/2704 26009KT 9999 SKC QNH2992INS BECMG 2602/2603 VRB06KT 9999 FEW080 QNH2996INS BECMG 2611/2612 VRB06KT 9999 SKC QNH2993INS TX35/2522Z TN19/2612Z KDOV 260000Z 2600/2706 14006KT 9999 BKN020 QNH3013INS BECMG 2601/2603 16006KT 8000 BR BKN005 QNH3010INS BECMG 2613/2614 18009KT 9999 NSW BKN020 QNH2992INS BECMG 2623/2624 VRB06KT 9000 -SHRA BKN018 QNH2992INS TEMPO 2700/2704 6000 -TSRA OVC015CB BECMG 2703/2704 25006KT 8000 -RA BKN010 QNH2996INS BECMG 2705/2706 31015G25KT 9999 NSW BKN008 QNH2997INS TX27/2620Z TN22/2608Z KDPA 260135Z 2602/2624 27010KT P6SM BKN010 OVC025 FM260300 30015G24KT P6SM BKN008 OVC012 FM261000 30013KT P6SM SCT018 FM261600 28012G18KT P6SM SCT050 KDYS 260000Z 2600/2706 15006KT 9999 SCT025 QNH2987INS BECMG 2606/2607 25009KT 9999 BKN025 QNH2985INS BECMG 2608/2609 01009KT 9999 OVC015 QNH2990INS BECMG 2611/2612 02012G18KT 8000 -SHRA OVC007 QNH3010INS BECMG 2615/2616 02010G15KT 9999 NSW OVC012 QNH3012INS BECMG 2704/2705 03015G25KT 8000 -SHRA OVC015 QNH3016INS TX32/2620Z TN15/2611Z KEDW 260200Z 2602/2708 VRB06KT 9999 SKC QNH2989INS TX35/2623Z TN13/2613Z KEET 260135Z 2602/2624 18005KT P6SM VCTS BKN050CB FM260400 18005KT P6SM BKN050 FM261600 18003KT 4SM SHRA OVC010 KEFD 252000Z 2520/2702 18009KT 8000 -SHRA SCT015 BKN030 QNH2990INS TEMPO 2520/2522 19012G18KT 4800 TSRA BKN020CB BECMG 2522/2523 16006KT 9999 NSW SCT020 QNH2988INS BECMG 2605/2606 VRB06KT 9999 SCT005 BKN015 QNH2994INS BECMG 2617/2618 VRB06KT 8000 -SHRA BKN040 QNH2995INS TX31/2520Z TN24/2610Z KEGI 260100Z 2601/2707 12008KT 9999 FEW015 FEW025 SCT170 BKN250 QNH3002INS BECMG 2610/2611 16006KT 9999 SCT020 BKN120 BKN250 QNH3004INS TEMPO 2612/2616 15012G20KT 9000 -TSRA BKN015CB BKN120 BKN250 BECMG 2616/2617 17013KT 9999 VCSH SCT025 BKN140 BKN250 QNH3000INS TEMPO 2617/2624 18015G25KT 4800 -TSRA BR BKN015CB BKN250 BECMG 2700/2701 19005KT 9999 NSW SCT025 BKN250 QNH2999INS TX31/2621Z TN23/2611Z KEND 252316Z 2523/2624 33015G30KT 9999 VCSH BKN020 QNH2990INS BECMG 2603/2604 02012KT 9999 NSW BKN040 QNH3000INS BECMG 2615/2616 05010G15KT 9000 -SHRA SCT060 SCT120 QNH3015INS TX23/2523Z TN14/2612Z LAST NO AMDS AFT 2523 NEXT 2610 KERI 260117Z 2601/2624 19014KT P6SM SCT020 BKN040 FM260300 19016G23KT 5SM -SHRA BR BKN020 TEMPO 2606/2609 3SM -TSRA BR OVC015CB FM260900 20017G24KT 5SM -SHRA BR OVC015 FM261200 22015G22KT 5SM BR VCSH OVC008 FM261500 29016G23KT 5SM BR OVC007 FM261700 31010G20KT P6SM OVC015 KEWR 260206Z 2602/2706 18007KT P6SM SCT007 BKN050 TEMPO 2604/2606 BKN007 FM260600 18004KT 3SM BR BKN009 FM261300 20009KT P6SM BKN015 FM261800 20010KT P6SM VCSH BKN035 KFAF 251800Z 2518/2624 12006KT 9999 BKN025 QNH3010INS BECMG 2520/2521 09012KT 8000 -RA BKN020 QNH3006INS BECMG 2605/2606 12006KT 8000 BR BKN010 QNH3001INS BECMG 2614/2615 22009KT 9999 NSW SCT010 BKN050 QNH2992INS TX31/2521Z TN22/2611Z LAST NO AMDS AFT 2603 NEXT 2610 KFBG 260100Z 2601/2707 VRB03KT 9999 SCT025 QNH3006INS BECMG 2608/2609 VRB03KT 9999 BKN010 QNH3006INS TEMPO 2609/2613 4800 BR OVC005 BECMG 2614/2615 22009KT 9999 SCT040 QNH3000INS TEMPO 2618/2621 8000 -SHRA TX31/2619Z TN20/2611Z KFCS 252100Z 2521/2703 VRB06KT 9999 SCT090 QNH3012INS TX21/2521Z TN07/2612Z KFDY 260107Z 2601/2624 21011KT 6SM -SHRA BR SCT015 BKN020 TEMPO 2604/2606 VRB20G30KT 1SM -TSRA BR OVC015CB FM260700 21011KT 5SM -SHRA BR OVC015 FM260900 24011KT P6SM SCT008 OVC010 TEMPO 2609/2613 BKN008 OVC010 FM261300 29015G21KT P6SM OVC015 FM261600 30012G20KT P6SM SCT020 BKN035 KFFO 252115Z 2521/2701 18012KT 9999 OVC020 QNH2991INS TEMPO 2521/2604 20015G25KT OVC015 BECMG 2605/2606 21012KT 9000 -SHRA OVC010 QNH2986INS TEMPO 2606/2609 24025G30KT 8000 -TSRA BKN007CB BECMG 2614/2615 33012G18KT 9999 NSW BKN020 QNH3000INS TX25/2522Z TN18/2611Z KFHU 260201Z 2602/2708 25009KT 9999 BKN070 QNH3008INS BECMG 2603/2604 25009KT 9999 SCT070 QNH3010INS BECMG 2611/2612 03007KT 9999 SCT065 QNH3012INS BECMG 2620/2621 07009KT 9999 FEW070 QNH3010INS BECMG 2704/2705 12011KT 9999 SKC 510003 QNH3013INS TX31/2622Z TN16/2612Z KFMY 260056Z 2601/2624 10005KT P6SM VCTS SCT040CB BKN060 TEMPO 2601/2602 2SM -TSRA BKN020CB FM260300 VRB03KT P6SM SCT020 BKN250 FM261800 18007KT P6SM BKN090 FM262100 32006KT P6SM VCTS SCT080CB KFPR 260112Z 2601/2624 VRB05KT P6SM VCTS FEW020 SCT025CB BKN045 TEMPO 2601/2602 VRB15G22KT 3SM TSRA BKN025CB FM260500 13003KT P6SM SCT025 SCT250 FM261400 13006KT P6SM SCT025 SCT250 FM261700 10011KT P6SM VCSH SCT030 SCT250 KFRI 260000Z 2600/2706 35010G15KT 9999 SCT080 QNH3004INS BECMG 2616/2617 36010G15KT 9999 FEW170 QNH3022INS BECMG 2621/2622 VRB06KT 9999 SKC QNH3011INS TX20/2620Z TN10/2612Z KFSI 252100Z 2521/2703 22010G15KT 9999 FEW040 QNH2986INS BECMG 2523/2524 01020G30KT 9999 BKN030 QNH2989INS BECMG 2605/2606 03012G18KT 9999 VCSH BKN020 QNH3005INS BECMG 2608/2609 03012G20KT 9000 -SHRA BKN015 QNH3010INS BECMG 2619/2620 05009KT 9999 NSW BKN050 QNH3020INS TX33/2522Z TN14/2612Z LAST NO AMDS AFT 2603 NEXT 2613 KFTK 260100Z 2601/2707 18009KT 9999 BKN025 QNH2996INS BECMG 2605/2606 22009KT 9000 -SHRA OVC010 QNH2997INS BECMG 2612/2613 34010G18KT 9999 NSW OVC010 QNH3001INS BECMG 2614/2615 35010G18KT 9999 BKN020 QNH3007INS BECMG 2616/2617 35012KT 9999 SCT030 QNH3010INS TX23/2602Z TN18/2623Z KFVE 260229Z 2602/2624 17012G20KT 4SM -RA BR OVC004 KFWA 260222Z 2602/2624 22010KT P6SM VCSH SCT035 BKN050 TEMPO 2603/2605 26015KT 5SM -TSRA OVC025CB FM260500 28012KT P6SM OVC025 FM261600 31013G20KT P6SM SCT030 FM262300 30007KT P6SM SCT080 KGFA 251901Z 2519/2701 24009KT 9999 FEW030 QNH3019INS BECMG 2601/2602 21006KT 9999 FEW100 QNH3009INS BECMG 2616/2617 27012G18KT 9999 SCT100 QNH3002INS TX15/2523Z TN07/2612Z KGON 260229Z 2602/2624 17018KT 3SM RA BR BKN008 TEMPO 2602/2603 1SM +SHRA FM260500 17006KT 2SM -DZ BR OVC004 FM261300 19008KT P6SM BKN008 BKN012 FM261900 19010KT P6SM VCSH BKN025 KGRB 260113Z 2601/2624 31008KT P6SM OVC020 TEMPO 2601/2603 BKN010 FM260300 32010G16KT P6SM BKN025 FM260600 30009G16KT P6SM SCT025 FM261100 28008KT P6SM SCT110 FM261600 28009G15KT P6SM SCT025 KGRF 252103Z 2521/2703 02009KT 9999 SKC QNH3024INS BECMG 2601/2602 VRB06KT 9999 SKC QNH3026INS BECMG 2617/2618 02008KT 9999 SKC QNH3016INS TX21/2523Z TN05/2614Z KGRK 260000Z 2600/2706 VRB06KT 9999 FEW045 QNH2987INS BECMG 2607/2608 VRB06KT 9999 OVC010 QNH2998INS BECMG 2615/2616 VRB06KT 8000 BR FEW017 QNH2999INS BECMG 2618/2619 03010G15KT 9000 -SHRA SCT040 QNH3000INS BECMG 2700/2701 01009KT 9999 NSW BKN016 QNH3004INS BECMG 2703/2704 01009KT 9999 BKN009 QNH3005INS TX32/2620Z TN21/2609Z KGRR 260116Z 2601/2624 20010KT P6SM -SHRA SCT025 BKN060 FM260300 29018G28KT P6SM VCSH OVC015 FM261200 32015G25KT P6SM BKN025 FM262100 27012KT P6SM OVC050 KGSB 252320Z 2523/2702 08003KT 9999 SCT035 QNH3004INS BECMG 2603/2604 03003KT 9999 BKN015 QNH3005INS BECMG 2606/2607 03003KT 9999 BKN008 QNH3000INS BECMG 2611/2612 26003KT 9999 BKN004 QNH3003INS BECMG 2615/2616 25010G15KT 9999 SCT018 QNH2996INS TX32/2618Z TN23/2612Z KGTB 260105Z 2601/2707 18012KT 9999 BKN020 OVC050 QNH2980INS BECMG 2607/2608 21015G25KT 9000 -SHRA BKN020 OVC050 510004 QNH2971INS BECMG 2616/2617 26015G25KT 9000 -SHRA BKN020 OVC050 510004 QNH2971INS TEMPO 2618/2621 27025G35KT BECMG 2621/2622 27012KT 9999 NSW BKN030 BKN050 510102 QNH2971INS BECMG 2623/2624 27009KT 9999 FEW030 FEW050 SCT250 QNH2971INS WND VRB06KT AFT 2706 TX22/2617Z TN10/2701Z KGUS 260022Z 2600/2701 22012KT 9000 -SHRA OVC025 QNH2986INS TEMPO 2603/2606 22015G25KT 3200 -TSRA OVC025CB BECMG 2608/2609 30010G20KT 9999 NSW OVC015 QNH2989INS TEMPO 2609/2613 33015G25KT BECMG 2614/2615 31010G15KT 9999 FEW030 QNH2996INS TX24/2600Z TN13/2611Z KHIB 260141Z 2602/2624 31008KT P6SM OVC040 FM260500 30005KT P6SM BKN045 FM261400 29012KT P6SM SCT045 KHIF 252105Z 2521/2703 32005KT 9999 FEW090 BKN210 QNH3022INS BECMG 2602/2603 09009KT 9999 SKC QNH3022INS BECMG 2606/2607 09012G18KT 9999 SKC QNH3025INS BECMG 2616/2617 20009KT 9999 SKC QNH3033INS BECMG 2619/2620 25009KT 9999 SKC QNH3022INS TX19/2523Z TN07/2613Z KHMN 260100Z 2601/2707 34012KT 9999 BKN110 QNH2999INS TEMPO 2601/2604 34015G25KT BECMG 2605/2606 VRB06KT 9999 SCT080 SCT110 QNH3006INS BECMG 2618/2619 30009KT 9999 SCT080 BKN150 QNH3018INS TS OMTNS W BECMG 2700/2701 18009KT 9999 FEW080 SCT150 QNH3018INS TX26/2621Z TN16/2612Z LAST NO AMDS 2605 NEXT 2609 KHNB 260137Z 2602/2624 17009KT P6SM BKN050 FM260300 20010KT P6SM VCSH BKN040 FM260700 22009KT P6SM VCSH BKN008 FM261100 31010KT P6SM BKN008 FM261300 34010KT P6SM BKN013 FM261500 34010KT P6SM BKN025 FM261800 34009KT P6SM BKN040 KHOP 260000Z 2600/2706 19012KT 9999 SCT070 QNH2995INS BECMG 2602/2603 21009KT 9999 BKN050 QNH2995INS BECMG 2605/2606 23009KT 9000 -SHRA OVC010 QNH2996INS BECMG 2613/2614 33012KT 9999 NSW BKN010 QNH3004INS BECMG 2614/2615 35015G20KT 9999 BKN020 QNH3007INS BECMG 2623/2624 01006KT 9999 SCT060 QNH3009INS TX24/2601Z TN18/2623Z KHOT 260034Z 2601/2624 25006KT P6SM VCSH SCT050 BKN120 TEMPO 2601/2602 VRB20KT 1SM SHRA BR BKN030 FM261000 34012KT P6SM VCTS SCT025 BKN050CB TEMPO 2610/2614 4SM -TSRA BR OVC025CB FM261400 02012KT P6SM VCSH OVC015 FM261800 05008G16KT P6SM OVC030 KHPN 260228Z 2602/2624 VRB04KT P6SM SCT006 BKN050 TEMPO 2602/2606 2SM BR BKN006 FM260600 VRB03KT 1SM BR OVC003 FM261400 17005KT 2SM BR BKN008 FM261600 18007KT P6SM VCSH BKN025 NOT SKED KHRT 260100Z 2601/2707 15009KT 9999 FEW030 BKN250 QNH2999INS TEMPO 2615/2622 VRB12G18KT 4800 -TSRA BKN030CB BECMG 2621/2622 16006KT 9999 SCT040 QNH3000INS TX32/2620Z TN23/2611Z KHST 260000Z 2600/2706 10009KT 9999 FEW030 QNH3000INS BECMG 2602/2603 09009KT 9999 SCT020 QNH3004INS BECMG 2612/2613 10009KT 9999 VCSH SCT030 QNH3003INS BECMG 2617/2618 09009KT 9999 NSW FEW030 QNH2999INS TX32/2617Z TN26/2609Z KHUF 260200Z 2602/2624 19008KT 6SM SHRA VCTS BKN025CB FM260600 25009KT P6SM VCSH BKN020 FM260800 29011KT P6SM VCSH OVC010 FM261100 32011KT P6SM BKN025 FM261400 33009KT P6SM SCT080 KHYR 260142Z 2602/2624 VRB03KT P6SM -RA SCT009 BKN018 OVC026 FM260300 VRB03KT P6SM OVC035 FM261200 VRB04KT P6SM SCT070 FM261600 26008KT P6SM SCT100 KIAB 260200Z 2602/2708 01010G15KT 9999 FEW150 QNH3007INS BECMG 2605/2606 01009KT 9999 SCT120 520202 QNH3018INS BECMG 2612/2613 03009KT 9999 FEW100 SCT150 QNH3019INS BECMG 2700/2701 VRB06KT 9999 SKC QNH3008INS TX20/2620Z TN11/2612Z KIAG 260223Z 2602/2624 20012KT 4SM SHRA OVC025 FM260300 20012KT P6SM VCSH OVC035 FM260600 20016G24KT P6SM VCSH OVC025 FM261000 22016G24KT 6SM -SHRA OVC015 FM261400 23015G25KT P6SM VCSH OVC015 FM261600 28014G22KT P6SM BKN025 FM262100 29012KT P6SM SCT040 KILG 260140Z 2602/2624 VRB04KT P6SM SCT010 SCT060 TEMPO 2603/2604 BKN010 FM260400 VRB04KT P6SM BKN010 FM260700 VRB02KT P6SM OVC003 FM261400 20005KT P6SM BKN010 FM261600 22006KT P6SM BKN045 FM261800 22008KT P6SM VCTS BKN070CB PROB30 2620/2624 4SM SHRA OVC025 KILN 260125Z 2601/2624 19012G18KT P6SM VCSH SCT015 BKN025 FM260900 23012G18KT 5SM -SHRA VCTS OVC008CB FM261300 29012G18KT P6SM VCSH OVC015 FM261700 32012G18KT P6SM BKN025 FM261900 32012KT P6SM SCT035 KIND 260200Z 2602/2706 19008KT 6SM SHRA VCTS SCT015 OVC060CB FM260500 22008KT P6SM VCTS BKN015CB FM260800 28010KT P6SM VCSH OVC008 FM261300 32008KT P6SM BKN025 FM261600 32008KT P6SM SCT070 KINL 260141Z 2602/2624 28003KT P6SM SCT040 SCT060 FM260400 VRB04KT P6SM BKN070 FM261200 27009KT P6SM BKN045 KINS 252259Z 2523/2705 VRB06KT 9999 SKC QNH2999INS BECMG 2620/2621 02009KT 9999 SKC QNH3000INS TX31/2523Z TN15/2612Z KIPT 260138Z 2602/2624 10006KT 6SM BR OVC007 FM261300 20007KT 4SM -SHRA OVC009 FM261630 23010KT 5SM -RA BR BKN018 OVC030 TEMPO 2618/2620 26015G25KT 1 1/2SM TSRA OVC018CB FM262100 29012KT P6SM BKN035 KISP 260114Z 2601/2624 19011G19KT 6SM -RA BR BKN005 TEMPO 2601/2603 1SM +SHRA FM260300 17007KT 3SM BR VCSH OVC005 FM261300 19010KT P6SM BKN010 BKN020 FM262000 19011KT P6SM VCSH BKN030 KJFK 260228Z 2602/2706 17010KT P6SM SCT007 BKN050 TEMPO 2602/2606 3SM BR BKN007 FM260600 17005KT 3SM BR BKN007 FM261300 18009KT P6SM BKN015 FM261800 18012KT P6SM VCSH SCT025 BKN035 KJHW 260223Z 2602/2624 19010KT P6SM OVC006 FM260400 19014G22KT P6SM VCSH OVC007 FM260800 20012G20KT 6SM -SHRA OVC007 FM261400 22012KT P6SM VCSH OVC007 FM261700 28014G22KT P6SM OVC015 FM262200 20012KT P6SM BKN035 KJLN 260001Z 2600/2624 20007KT P6SM VCTS FEW050CB FM260100 33010G23KT P6SM -SHRA VCTS BKN035CB FM260300 36009G25KT P6SM -SHRA BKN045 FM260700 36013G25KT P6SM OVC050 FM261200 03007KT P6SM SCT250 KLCK 260125Z 2601/2624 18009KT P6SM VCSH SCT015 BKN025 FM261000 21010KT 5SM -SHRA VCTS OVC008CB FM261400 29012G18KT P6SM VCSH OVC015 FM261800 31012G18KT P6SM BKN025 FM262000 31012KT P6SM SCT035 KLEB 260107Z 2601/2624 00000KT 1 1/2SM -RA BR OVC002 FM260900 VRB03KT 1/2SM FG OVC001 FM261200 18007KT P6SM OVC004 FM261500 19008KT P6SM BKN008 FM262100 20007KT P6SM -SHRA BKN015 KLFI 260132Z 2601/2707 16009KT 9999 SCT020 QNH3006INS BECMG 2608/2609 12006KT 8000 BR BKN010 QNH3001INS BECMG 2614/2615 22009KT 9999 NSW SCT010 BKN050 QNH2994INS BECMG 2623/2624 21012KT 6000 -SHRA BKN020 OVC080 QNH2994INS TX29/2621Z TN22/2611Z KLFT 260139Z 2602/2624 VRB04KT P6SM VCSH SCT030 BKN080 FM260400 VRB03KT P6SM SCT100 BKN250 TEMPO 2610/2613 4SM BR SCT012 FM261300 VRB05KT P6SM VCTS SCT025CB BKN050 TEMPO 2613/2617 3SM TSRA BKN025CB FM261800 21006KT P6SM VCTS SCT035CB BKN100 KLGA 260205Z 2602/2706 19012KT P6SM SCT010 BKN050 TEMPO 2604/2606 BKN009 FM260600 18006KT 5SM BR BKN009 FM261300 19009KT P6SM BKN015 FM261800 18012KT P6SM VCSH SCT025 BKN035 KLIT 260217Z 2602/2624 21008KT P6SM VCSH SCT050 BKN120 TEMPO 2602/2603 VRB15G25KT 1SM SHRA BR BKN030 FM261000 32010KT P6SM VCTS SCT025 BKN050CB TEMPO 2610/2614 4SM -TSRA BR OVC025CB FM261400 01012KT P6SM VCSH OVC015 FM261800 03010G18KT P6SM OVC030 KLNS 260138Z 2602/2624 10003KT 3SM BR SCT006 BKN120 FM260500 15004KT 3/4SM BR OVC009 FM261600 22007KT P6SM VCSH BKN018 OVC060 FM261800 22007KT P6SM -SHRA BKN025 OVC060 TEMPO 2619/2621 26015G25KT 2SM TSRA OVC025CB FM262200 29012KT P6SM BKN040 KLRF 251500Z 2515/2621 20009KT 9999 SCT010 SCT050 QNH2990INS BECMG 2522/2523 22006KT 9999 SCT030 QNH2988INS BECMG 2605/2606 VRB06KT 8000 -SHRA BR SCT020 BKN050 QNH3000INS TEMPO 2608/2612 BKN015 BKN050 BECMG 2612/2613 03012G18KT 9999 NSW BKN050 QNH3005INS TX30/2521Z TN19/2613Z KLSE 260205Z 2602/2624 31012G20KT P6SM BKN035 FM260400 30007KT P6SM SCT100 FM261400 27006KT P6SM BKN025 FM261800 29010KT P6SM SCT045 KLSF 260100Z 2601/2707 19006KT 9999 BKN035 QNH3002INS BECMG 2605/2606 18006KT 9999 BKN017 QNH3006INS BECMG 2618/2619 22009KT 9000 -SHRA SCT025 QNH2999INS TEMPO 2620/2623 18015G25KT 8000 -TSRA BKN030CB BECMG 2703/2704 18006KT 8000 BR BKN020 QNH2996INS TX30/2621Z TN23/2612Z KLSV 252300Z 2523/2705 VRB06KT 9999 SKC QNH2990INS BECMG 2617/2618 04009KT 9999 SKC QNH2998INS TX36/2523Z TN19/2612Z KLTS 260100Z 2601/2707 36015G25KT 9999 SCT040 510102 QNH2986INS TEMPO 2601/2604 35025G35KT BECMG 2606/2607 03015G25KT 9000 -SHRA BKN025 510102 QNH3000INS BECMG 2614/2615 03012G20KT 9000 -SHRA BKN030 QNH3016INS BECMG 2621/2622 03009KT 9999 NSW SCT035 QNH3022INS TX32/2621Z TN14/2612Z KLUF 252000Z 2520/2702 22009KT 9999 FEW250 QNH2982INS BECMG 2605/2606 VRB04KT 9999 SKC QNH2986INS TX40/2523Z TN25/2612Z KLUK 260125Z 2601/2624 21009KT P6SM VCSH SCT018 BKN028 FM260900 23011KT 5SM -SHRA VCTS OVC012CB FM261300 29010G16KT P6SM VCSH OVC018 FM261700 32010G16KT P6SM BKN028 FM261900 32010KT P6SM SCT040 KLVS 260134Z 2602/2624 35008KT P6SM VCSH SCT040 BKN110 FM260500 06007KT P6SM OVC040 FM261600 17010KT P6SM BKN050 KLYH 260215Z 2602/2624 00000KT 4SM BR SCT200 TEMPO 2602/2606 1 1/2SM BR FM260600 00000KT 2SM BR SCT005 BKN200 FM261000 VRB02KT 3SM BR BKN025 FM261300 VRB04KT P6SM SCT080 FM261700 22007KT P6SM VCSH BKN090 KMCF 260000Z 2600/2706 11006KT 9999 SCT040 SCT150 QNH3001INS BECMG 2614/2615 17009KT 9999 SCT020 QNH2999INS TEMPO 2620/2624 VRB12G18KT 6000 -TSRA BKN020CB BECMG 2623/2624 VRB06KT 9999 BKN030 QNH3004INS TX34/2618Z TN25/2609Z KMDT 260139Z 2602/2624 VRB03KT 2SM BR BKN004 OVC015 FM260300 15003KT 5SM BR SCT006 BKN120 FM260500 15004KT 2SM BR OVC009 FM261600 22007KT P6SM VCSH BKN018 OVC060 FM261800 22007KT P6SM -SHRA BKN025 OVC060 TEMPO 2619/2621 26015G25KT 2SM TSRA OVC025CB FM262200 29012KT P6SM BKN040 KMDW 260221Z 2602/2706 27010KT P6SM SCT012 BKN030 FM260300 30015G24KT P6SM SCT007 BKN012 FM261000 30013KT P6SM SCT018 FM261600 28012G18KT P6SM SCT050 FM270100 26006KT P6SM FEW250 KMFD 260110Z 2601/2624 19015KT 5SM -SHRA BR OVC020 TEMPO 2605/2607 2SM -TSRA BR OVC015CB FM260800 21015KT 5SM -SHRA BR BKN009 OVC012 FM261400 29012G20KT P6SM OVC008 FM261700 29010G18KT P6SM BKN015 FM262000 30011KT P6SM FEW025 KMGE 260045Z 2600/2703 15006KT 9000 -SHRA FEW030 QNH3009INS BECMG 2601/2602 14006KT 9999 NSW BKN040 QNH3009INS BECMG 2608/2609 VRB06KT 9999 SCT008 QNH3006INS BECMG 2616/2617 VRB06KT 8000 -SHRA SCT024 QNH3011INS TEMPO 2621/2701 18010G15KT 1600 TSRA BKN010CB TX30/2600Z TN21/2614Z KMIB 260100Z 2601/2707 29009KT 9999 BKN050 QNH2988INS BECMG 2617/2618 30020G30KT 9999 BKN070 520006 QNH2982INS BECMG 2622/2623 30015G25KT 9999 BKN040 520004 QNH2980INS TX16/2621Z TN03/2609Z KMIV 260140Z 2602/2624 17006KT P6SM BKN200 FM260600 VRB04KT P6SM BKN025 FM260800 VRB03KT P6SM BKN003 FM261400 22005KT P6SM BKN020 FM261700 22007KT P6SM BKN130 PROB30 2621/2624 4SM -SHRA OVC025 KMKG 260115Z 2601/2624 24012G20KT P6SM SCT035 BKN150 FM260500 31021G30KT P6SM VCSH OVC009 FM260800 32015G25KT P6SM VCSH BKN020 FM261200 29012KT P6SM BKN020 FM262100 27011KT P6SM OVC050 KMLI 260029Z 2600/2624 31014G25KT P6SM BKN015 OVC020 TEMPO 2600/2601 P6SM SCT015 OVC020 FM260100 32013G18KT P6SM VCSH BKN015 OVC040 FM260600 31010KT P6SM SCT090 BKN110 KMMT 251500Z 2515/2621 VRB06KT 8000 BR OVC007 QNH3018INS BECMG 2515/2516 04006KT 9999 NSW OVC009 QNH3017INS BECMG 2516/2517 04006KT 9999 BKN010 OVC015 QNH3016INS BECMG 2517/2518 05009KT 9999 SCT015 BKN080 QNH3016INS BECMG 2518/2519 VRB06KT 9999 SCT030 SCT090 QNH3009INS BECMG 2602/2603 VRB06KT 9999 SCT015 SCT025 QNH3010INS BECMG 2607/2608 VRB06KT 8000 BR OVC015 QNH3010INS BECMG 2609/2610 VRB06KT 4800 BR OVC010 QNH3009INS BECMG 2611/2612 VRB06KT 1600 BR OVC006 QNH3009INS BECMG 2614/2615 23006KT 4800 BR OVC010 QNH3008INS BECMG 2615/2616 23009KT 8000 BR BKN015 OVC050 QNH3007INS BECMG 2616/2617 24009KT 9999 NSW SCT020 BKN100 QNH3005INS TX30/2518Z TN20/2610Z KMSN 260226Z 2602/2624 31010G20KT P6SM BKN015 OVC035 TEMPO 2602/2604 -SHRA FM260500 32011G22KT P6SM BKN025 OVC040 FM260700 31009KT P6SM SCT035 FM261600 28010KT P6SM BKN030 FM262200 28009KT P6SM SCT040 KMTC 260155Z 2601/2707 23006KT 4800 +RA BR SCT008 BKN025 OVC050 QNH2976INS TEMPO 2601/2603 24015G25KT 6000 -TSRA SCT004 BKN010CB BECMG 2609/2610 29012KT 9999 NSW BKN015 OVC030 QNH2976INS BECMG 2614/2615 30015G25KT 9999 SCT015 SCT200 QNH2987INS BECMG 2620/2621 29012KT 9999 SCT020 BKN200 QNH2996INS BECMG 2623/2624 29009KT 9999 FEW030 QNH3003INS TX22/2601Z TN13/2701Z LAST NO AMDS AFT 2603 NEXT 2609 KMUI 260040Z 2600/2701 VRB06KT 4800 BR OVC004 QNH3008INS TEMPO 2600/2604 OVC006 BECMG 2616/2617 19012KT 9999 NSW SCT015 BKN020 QNH2997INS TEMPO 2618/2623 27020G35KT 3200 -TSRA FEW007 OVC012CB TX24/2617Z TN16/2609Z LAST NO AMDS AFT 2604 NEXT 2611 KMUO 260201Z 2602/2708 32006KT 9999 SKC QNH3016INS BECMG 2609/2610 08006KT 9999 SKC QNH3022INS BECMG 2618/2619 32009KT 9999 SKC QNH3011INS TX25/2623Z TN05/2611Z KMXF 251900Z 2519/2701 17012KT 9000 -SHRA SCT040 QNH3000INS TEMPO 2521/2601 18010G15KT 1600 TSRA BKN010CB BECMG 2601/2602 18006KT 9999 NSW BKN020 QNH3002INS BECMG 2605/2606 VRB06KT 9999 BKN017 QNH3006INS BECMG 2612/2613 18009KT 9999 BKN030 OVC090 QNH3007INS BECMG 2616/2617 23009KT 9000 -SHRA SCT025 BKN060 OVC120 QNH2999INS BECMG 2700/2701 23006KT 9999 NSW BKN030 BKN110 QNH3001INS TX31/2617Z TN21/2610Z LAST NO AMDS AFT 2603 NEXT 2611 KNBC 2521/2621 13007KT 9999 FEW030 SCT100 QNH3004INS BECMG 2603/2605 VRB04KT 9999 FEW015 SCT100 QNH3002INS BECMG 2612/2614 19008KT 9999 SCT050 BKN080 QNH3000INS T23/2511Z T31/2518Z KNBG 2601/2623 16009KT 9999 VCTS SCT025CB BKN120 BKN250 QNH2995INS TEMPO 2601/2603 VRB20G35KT 1600 +TSRA BKN025CB OVC120 BECMG 2603/2605 VRB03KT 9999 NSW FEW020 SCT060 BKN250 QNH3000INS BECMG 2611/2613 22011KT 9999 VCTS SCT025CB SCT100 BKN250 QNH3005INS TEMPO 2617/2623 VRB25G35KT 1600 +TSRA BKN020CB OVC035 AUTOMATED SENSOR METWATCH 2604 TIL 2610 T24/2610Z T28/2621Z 0145 FN00192 KNCA 2521/2621 04006KT 9999 VCTS FEW013 BKN042CB OVC060 QNH3010INS FM260300 VRB06KT 9999 VCSH SCT030CB BKN050 QNH3002INS TEMPO 2603/2609 VRB08G15KT 4800 SHRA BR SCT025CB BKN040 FM261200 29008KT 9999 FEW030 QNH3000INS T22/2610Z T31/2620Z KNFG 2521/2621 23008KT 9999 SCT025 QNH2990INS BECMG 2603/2605 VRB05KT 9999 BKN015 QNH2991INS BECMG 2617/2618 22008KT 9999 SCT020 QNH2989INS T15/2613Z T25/2620Z KNFL 2515/2615 VRB06KT 9999 SKC QNH3005INS T27/2523Z T04/2613Z FS30003 KNFW 2515/2615 19012KT 9999 SCT012 BKN070 OVC120 QNH2992INS TEMPO 2515/2516 BKN012 OVC070 BECMG 2518/2520 15009KT 9999 FEW025 SCT040 BKN250 QNH2987INS BECMG 2606/2608 01012G18KT 9999 VCTS SCT025CB BKN040 OVC080 QNH2995INS TEMPO 2610/2612 02020G25KT 9000 -TSRA BR BKN012CB OVC025 T30/2521Z T18/2615Z FN20046 KNGP 2515/2615 20010KT 9999 VCSH FEW015 SCT025 SCT120 BKN300 QNH2989INS TEMPO 2515/2517 VRB10G20KT 6000 SHRA FEW015 BKN025 BKN100 BKN250 FM251700 17014G20KT 9999 VCSH FEW020 SCT045 SCT300 QNH2989INS FM251900 14015G21KT 9999 VCSH FEW025 FEW050 SCT300 QNH2984INS FM260200 16012G18KT 9999 FEW018 SCT030 BKN300 QNH2990INS FM260600 18008KT 9999 VCSH SCT015 SCT080 SCT150 BKN300 QNH2993INS FM261100 17007KT 9999 VCTS FEW015 SCT025CB BKN150 BKN250 QNH2993INS TEMPO 2611/2615 VRB20G30KT 3200 +SHRA FEW012 BKN020CB BKN100 OVC200 T34/2519Z T26/2612Z FN20044 KNGU 2515/2615 13009KT 9999 SCT030 SCT100 BKN250 QNH3014INS BECMG 2516/2518 09010KT 9000 -SHRA BR VCTS SCT025CB BKN040 OVC090 QNH3008INS TEMPO 2518/2600 VRB15G25KT 4800 TSRA BR BKN012CB BKN025 OVC040 BECMG 2522/2600 10006KT 8000 BR SCT020 BKN060 QNH3003INS TEMPO 2606/2612 VRB02KT 0800 FG OVC005 FM261500 25006KT 8000 BR VCSH SCT035 SCT080 BKN250 QNH2998INS T29/2518Z T23/2609Z FN00067 KNHK 2523/2623 15005KT 9999 FEW035 SCT230 QNH3003INS BECMG 2605/2607 VRB04KT 6000 BR BKN006 BKN100 BKN230 QNH2999INS TEMPO 2607/2613 0800 FG OVC003 BECMG 2613/2615 22008KT 9999 NSW FEW025 SCT080 BKN160 QNH2990INS BECMG 2619/2621 23010KT 9999 -SHRA VCTS SCT025CB BKN060 BKN140 QNH2989INS AUTOMATED SENSOR METWATCH 2603 TIL 2608 T22/2608Z T29/2621Z FN20065 KNID 2523/2623 VRB05KT 9999 SKC QNH2985INS BECMG 2602/2604 21006KT 9999 SKC QNH2987INS T15/2614Z T37/2623Z LAST NO AFT 2605/ NEXT 2615 KNIP 2515/2615 09006KT 9999 VCSH SCT030 SCT050 QNH3010INS TEMPO 2515/2517 09012G20KT 8000 SHRA BR BKN030CB FM251700 09009KT 9999 VCSH SCT040 SCT250 QNH3002INS TEMPO 2517/2521 09015G25KT 6000 SHRA BR SCT015 BKN030CB FM252100 10008KT 9999 SCT030 SCT100 BKN250 QNH3002INS FM260200 15004KT 9999 FEW020 SCT250 QNH3003INS T33/2520Z T27/2612Z FN20015 KNJK 2515/2615 VRB06KT 9999 SKC QNH2972INS T38/2522Z T22/2613Z FS30093 KNKT 2521/2621 VRB05KT 9999 VCSH SCT015 BKN030 BKN050 QNH3004INS FM26000 VRB05KT 9999 FEW030 BKN050 QNH2998INS TEMPO 2603/2609 VRB05G15KT 4800 SHRA BR SCT020 BKN040 TEMPO 2609/2612 3200 BR T23/2611Z T30/2620Z KNKX 2521/2621 30008KT 9999 FEW020 QNH2987INS BECMG 2603/2605 VRB05KT 9999 OVC015 QNH2991INS TEMPO 2608/2614 OVC009 FM261730 30008KT 9999 FEW030 QNH2992INS T25/21Z T18/2612Z KNLC 2515/2615 VRB06KT 9999 SKC 532809 533704 QNH2985INS FM252000 01007KT 9999 SKC 500000 QNH2976INS FM260200 VRB06KT 9999 SKC QNH2977INS T34/2523Z T15/2613Z FS30067 KNMM 2523/2623 16005KT 9999 VCTS FEW035CB SCT090 BKN250 QNH2997INS FM260245 15005KT 9999 SCT008 OVC015 QNH3001INS FM260500 16005KT 8000 BR BKN006 OVC015 QNH3002INS FM260900 16004KT 2400 BR OVC004 QNH3002INS FM261100 17005KT 6000 BR OVC005 QNH3004INS FM261400 18007KT 9999 VCSH BKN007 OVC015 QNH3003INS FM261600 21008G15KT 9000 -SHRA VCTS SCT015CB BKN025 OVC040 QNH2999INS TEMPO 2617/2621 VRB15G25KT 1200 +TSRA BKN015CB OVC025 AUTOMATED SENSOR METWATCH 2605 TIL 2612 T22/2611Z T27/2616Z FN20037 KNPA 2515/2615 VRB05KT 9999 VCTS SCT030CB BKN120 BKN250 QNH3005INS TEMPO 2515/2517 8000 RA FM251700 15008KT 9999 VCTS SCT030CB BKN120 BKN250 QNH2997INS TEMPO 2517/2522 8000 TSRA BKN030CB FM260000 15005KT 9999 VCSH SCT030 BKN120 BKN250 QNH2997INS TEMPO 2606/2609 8000 RA FM260900 18005KT 9999 VCTS SCT025CB BKN100 BKN250 QNH3000INS TEMPO 2610/2615 VRB10G20KT 6000 TSRA BKN020CB T30/2520Z T26/2612Z FN20033 KNQI 2523/2623 14013G20KT 9999 FEW030 FEW100 QNH2982INS FM260100 14010KT 9999 FEW025 FEW250 QNH2986INS FM260300 15008KT 9999 FEW020 SCT030 SCT250 QNH2989INS FM260600 15007KT 9999 VCSH FEW018 SCT030 BKN250 QNH2988INS FM261100 16006KT 9999 VCSH SCT015 BKN025 BKN150 BKN250 QNH2995INS FM261400 15005KT 9999 VCTS SCT020CB BKN140 BKN250 QNH2996INS TEMPO 2617/2622 VRB18G28KT 3200 TSRA BR FEW014 BKN016CB FM262200 13012G18KT 9999 VCSH FEW025 SCT040 SCT120 BKN170 BKN250 QNH2989INS AUTOMATED SENSOR METWATCH 2605 TIL 2612 T24/2611Z T33/2620Z 2355 FN00003 KNQX 2518/2615 12008KT 9999 VCTS SCT025CB SCT050 QNH2995INS FM252300 11006KT 9999 FEW025 SCT250 QNH2997INS T32/2518Z T27/2610Z 1830 FN20050 KNRB 2515/2615 09010G15KT 9999 VCSH SCT030 SCT250 QNH3004INS FM260200 18005KT 9999 FEW030 FEW250 QNH3006INS TEMPO 2608/2613 BKN025 T32/2519Z T25/2611Z FN20022 KNSE 2520/2615 16008KT 9999 VCTS FEW020 SCT050CB SCT120 BKN250 QNH2998INS TEMPO 2520/2601 VRB15G30KT 8000 -TSRA SCT025 BKN050CB BKN120 FM260200 15003KT 9999 VCSH SCT025 SCT120 BKN250 QNH3004INS FM260800 13006KT 9999 VCTS FEW010 SCT025CB SCT140 BKN250 QNH3003INS TEMPO 2608/2614 VRB15G25KT 6000 TSRA SCT010 BKN025CB OVC050 T30/2521Z T23/2611Z 1945 FN20029 KNTD 2519/2615 26009KT BKN018 QNH2991INS BECMG 2521/2523 27009KT 9999 SCT018 QNH2984INS FM260200 VRB05KT 9999 FEW015 QNH2985INS TEMPO 2606/2612 BKN012 T22/2522Z T17/2612Z 1957 FS30016 KNTU 2515/2615 12009KT 9999 VCSH BKN030 BKN100 BKN250 QNH3015INS FM251800 09010KT 8000 -SHRA BR VCTS BKN025CB BKN040 OVC090 QNH3008INS TEMPO 2518/2600 VRB15G25KT 3200 BR BKN010CB BKN025 OVC040 FM260000 10006KT 8000 BR SCT020 BKN050 QNH3003INS TEMPO 2606/2612 VRB06KT 0800 FG OVC003 FM261500 25006KT 8000 BR VCSH SCT035 SCT080 BKN250 QNH2998INS T29/2519Z T23/2609Z FN20008 KNUC 2515/2615 28007KT 9999 OVC012 QNH2988INS BECMG 2519/2520 29012KT 9999 FEW015 QNH2983INS TEMPO 2603/2609 BKN012 FM260900 30008KT 9999 OVC012 QNH2991INS T19/2521Z T15/2612Z FS30058 KNUW 2518/2615 VRB06KT 9999 BCFG FEW015 FEW120 BKN250 QNH3029INS TEMPO 2518/2520 31005KT 1200 BR BCFG SCT000 BKN005 BKN120 OVC250 FM251800 32010KT 9999 FEW030 SCT250 QNH3026INS FM260300 32006KT 9999 FEW250 QNH3022INS TEMPO 2609/2615 4800 BR BCFG BKN005 T19/2522Z T07/2612Z 1855 FS30004 KNXP 2521/2621 VRB06KT 9999 SKC QNH2994INS BECMG 2603/2605 30005KT 9999 SKC QNH2995INS FM261730 02005KT 9999 SKC QNH3002INS T36/2522Z T21/2614Z KNYG 2603/2703 VRB04KT 9999 FEW020 BKN035 QNH2998INS TEMPO 2603/2609 1600 BR BKN020 TEMPO 2609/2615 0800 FG BKN002 FM261500 19008KT 9999 FEW025 SCT050 QNH2988INS BECMG 2620/2622 33008KT 9999 FEW025 SCT050 QNH2990INS TEMPO 2622/2703 VRB15G30KT 2400 TSRA BR BKN025CB T19/2609Z T31/2618Z KNYL 2521/2621 16010KT 9999 SKC QNH2973INS TEMPO 2521/2603 18008G18KT BECMG 2604/2606 VRB06KT 9999 SKC QNH2978INS T38/2522Z T24/2613Z KNZY 2523/2623 30012KT 9999 FEW023 QNH2988INS FM260300 32006KT 9999 BKN018 QNH2992INS BECMG 2614/2616 30009KT 9999 SCT025 QNH2994INS FM231900 31012KT 9999 FEW025 QNH2995INS T17/2613Z T24/2621Z FS30139 KOFF 260200Z 2602/2708 VRB06KT 9999 SKC QNH3012INS BECMG 2614/2615 29010G15KT 9999 SKC QNH3014INS BECMG 2623/2624 23006KT 9999 SKC QNH3009INS TX21/2620Z TN08/2611Z KORD 260139Z 2602/2706 27010KT P6SM SCT012 FM260215 28011KT 6SM BR BKN012 FM260400 30015G24KT P6SM SCT007 BKN010 FM261000 30013KT P6SM SCT018 FM261600 28012G18KT P6SM SCT050 FM270100 26006KT P6SM FEW250 KORF 252359Z 2600/2624 13007KT P6SM VCSH SCT010 BKN040 TEMPO 2600/2602 BKN020 FM260200 15006KT P6SM BKN200 FM260600 18005KT P6SM SCT100 FM260800 19005KT 4SM BR BKN010 FM261400 24006KT P6SM SCT020 BKN040 KOZR 260000Z 2600/2706 19006KT 9999 FEW030 SCT150 QNH3005INS BECMG 2605/2606 19006KT 8000 BR FEW010 FEW040 SCT200 QNH3008INS BECMG 2614/2615 19006KT 9999 NSW SCT030 SCT100 QNH3010INS BECMG 2617/2618 19006KT 9000 VCTS SCT030CB QNH2999INS BECMG 2702/2703 19006KT 9999 NSW SCT040 QNH3002INS TX32/2620Z TN21/2611Z KPAM 252320Z 2523/2624 15006KT 9999 SCT025 BKN040 QNH3000INS BECMG 2614/2615 20009KT 9999 SCT030 SCT050 BKN250 QNH2999INS BECMG 2618/2619 23006KT 9999 VCTS SCT025CB BKN250 QNH2998INS TEMPO 2619/2624 VRB12G18KT 4800 -TSRA BKN025CB TX32/2618Z TN24/2610Z LAST NO AMDS AFT 2523 NEXT 2610 KPGD 260027Z 2600/2624 17004KT P6SM SCT020 BKN090 TEMPO 2600/2602 BKN020 FM260300 VRB03KT P6SM SCT020 BKN200 FM261500 12006KT P6SM FEW200 FM262100 16006KT P6SM VCTS BKN090CB KPGV 252358Z 2600/2624 07004KT P6SM SCT030 TEMPO 2600/2601 BKN005 FM260400 00000KT 5SM BR SCT010 FM260600 00000KT 2SM BR BKN008 FM260800 00000KT 1 1/2SM BR BKN002 FM261300 VRB03KT 5SM BR BKN015 FM261500 26006KT P6SM SCT030 LTD TO CLD VIS AND WIND KPHL 260140Z 2602/2706 VRB03KT P6SM SCT015 OVC100 TEMPO 2603/2604 BKN015 FM260400 VRB04KT P6SM OVC015 FM260900 VRB04KT P6SM OVC003 FM261500 21007KT P6SM BKN015 FM261800 24007KT P6SM VCTS BKN060CB PROB30 2620/2624 4SM SHRA OVC025 FM270400 32007KT P6SM BKN035 KPIA 260139Z 2602/2624 32010G18KT P6SM BKN025 FM261200 31007KT P6SM SCT200 KPNE 260140Z 2602/2624 VRB03KT P6SM FEW003 BKN015 FM260500 VRB03KT P6SM BKN003 FM261500 VRB04KT P6SM BKN015 FM262000 25007KT P6SM VCTS BKN070CB PROB30 2620/2624 4SM SHRA OVC025 KPOB 260100Z 2601/2707 VRB03KT 9999 SCT025 QNH3006INS BECMG 2608/2609 VRB03KT 9999 BKN010 QNH3006INS TEMPO 2609/2613 4800 BR OVC005 BECMG 2614/2615 22009KT 9999 SCT040 QNH3000INS TEMPO 2618/2621 8000 -SHRA TX31/2619Z TN20/2611Z KPOE 260000Z 2600/2706 23006KT 9999 BKN030 BKN050 BKN100 QNH2991INS TEMPO 2600/2601 VRB12G18KT 6000 -TSRA BKN025CB BECMG 2602/2603 VRB06KT 8000 BR SCT010 BKN020 BKN150 QNH2994INS TEMPO 2611/2614 OVC008 BECMG 2613/2614 32006KT 9999 NSW SCT004 BKN015 OVC065 QNH2999INS BECMG 2616/2617 32009KT 8000 -SHRA VCTS SCT015 BKN020CB OVC060 QNH2997INS TEMPO 2618/2623 VRB12G18KT 6000 -TSRA OVC015CB BECMG 2623/2624 34009KT 8000 -RA BKN015 BKN100 OVC120 QNH3000INS TX29/2622Z TN23/2608Z KPSM 260108Z 2601/2624 16014G22KT 3SM -RA BR OVC004 WS020/17040KT FM260600 15012KT 1 1/2SM -SHRADZ BR OVC003 FM261300 20006KT P6SM OVC003 FM261800 20008KT P6SM BKN008 KPVD 260214Z 2602/2624 18010G19KT 5SM RA BR OVC007 WS020/16035KT FM260400 18008KT 3SM -SHRA BR OVC015 FM260800 18007KT 3SM -SHRA BR OVC008 FM261200 19007KT 3SM BR VCSH OVC008 FM261700 19011G22KT P6SM VCSH BKN010 FM262300 20009KT 5SM BR VCSH OVC008 KPWM 260106Z 2601/2624 16012KT 2SM RA BR OVC005 WS020/19045KT FM260400 16006KT 2SM -SHRADZ BR OVC003 WS020/19045KT FM260600 16006KT 1SM -SHRADZ BR OVC002 FM260800 17007KT 1/2SM -DZ FG OVC002 FM261300 19005KT 2SM BR OVC005 KQD3 251902Z 2519/2701 VRB06KT 9999 BKN030 QNH2980INS BECMG 2606/2607 10010G15KT 9999 FEW030 QNH2970INS BECMG 2612/2613 VRB06KT 9999 FEW040 QNH2970INS TX34/2610Z TN26/2603Z KQN3 252100Z 2521/2703 VRB06KT 9999 FEW200 QNH2976INS TX35/2615Z TN25/2606Z KQNA 251500Z 2515/2615 35009KT 8000 -SHRA BR SCT006 BKN012 QNH2998INS TEMPO 2516/2522 BKN005 BECMG 2600/2601 01012KT 9000 -SHRA BR FEW008 SCT015 BKN030 QNH3000INS BECMG 2605/2606 01012G22KT 8000 -SHRA BR SCT010 BKN025 OVC050 QNH3000INS BECMG 2608/2609 01015G25KT 6000 -SHRA BR SCT008 BKN015 OVC040 QNH2997INS TEMPO 2609/2615 3200 SHRA BR BKN008 TX21/2601Z TN18/2518Z KQRH 251902Z 2519/2701 VRB06KT 9999 SCT030 QNH2980INS BECMG 2606/2607 10010G15KT 9999 FEW030 QNH2970INS BECMG 2612/2613 VRB06KT 9999 FEW040 QNH2970INS TX34/2610Z TN26/2603Z KRCA 251900Z 2519/2701 31015G25KT 9999 OVC060 QNH3013INS TEMPO 2519/2524 31020G35KT 520005 BECMG 2600/2601 VRB06KT 9999 SKC QNH3022INS TX17/2617Z TN04/2611Z KRDG 260140Z 2602/2624 VRB03KT P6SM OVC002 FM260500 17003KT 4SM BR OVC002 FM261400 19005KT P6SM OVC008 FM261600 20006KT P6SM BKN015 FM261900 22007KT P6SM VCTS OVC025CB PROB30 2619/2624 4SM SHRA OVC025 KRDR 260200Z 2602/2708 28009KT 9999 BKN040 620606 QNH2996INS BECMG 2616/2617 29012G18KT 9999 SCT040 BKN080 620806 QNH2981INS BECMG 2622/2623 29009KT 8000 -SHRA BKN040 OVC080 640806 QNH2980INS BECMG 2702/2703 29009KT 9999 NSW SCT040 BKN080 620806 QNH2979INS TX17/2618Z TN04/2612Z KRIV 2520/2702 31009KT 9999 SKC QNH2990INS TEMPO 2522/2602 31012G18KT BECMG 2602/2603 VRB04KT 9999 FEW280 QNH2995INS BECMG 2618/2619 31009KT 9999 SCT280 QNH2992INS TEMPO 2621/2702 31012G18KT TX29/2522Z TN14/2613Z KRND 251830Z 2518/2624 18009KT 9999 SCT040 QNH2986INS BECMG 2522/2523 14006KT 9999 SCT040 QNH2988INS BECMG 2606/2607 15006KT 9999 BKN010 QNH2998INS BECMG 2616/2617 14009KT 8000 -SHRA SCT009 BKN020 QNH3002INS TX33/2520Z TN23/2609Z LAST NO AMDS 2600 NEXT 2609 KROC 260223Z 2602/2624 18008KT P6SM VCSH OVC035 FM260700 20010G16KT P6SM OVC040 FM260900 20012G20KT P6SM VCSH OVC025 FM261200 21014G22KT 6SM -SHRA OVC015 FM261700 27015G25KT P6SM BKN025 FM262000 28014G22KT P6SM BKN040 KRST 260103Z 2601/2624 29006KT P6SM SCT060 FM261200 27009KT P6SM BKN015 FM261600 29012G20KT P6SM SCT035 KRSW 260057Z 2601/2624 21004KT P6SM VCTS SCT040CB BKN110 TEMPO 2601/2602 2SM -TSRA BKN020CB FM260300 VRB03KT P6SM FEW020 SCT250 FM261800 15007KT P6SM BKN100 FM262100 11005KT P6SM VCTS SCT080CB KRUT 260052Z 2601/2624 14013KT P6SM VCSH BKN025 OVC030 FM260500 14008KT P6SM OVC020 WS020/22035KT FM261400 17012KT P6SM OVC035 FM261600 17013G21KT P6SM VCSH OVC030 FM262300 20009G17KT P6SM -SHRA OVC025 KRVS 260105Z 2601/2624 01011G19KT P6SM BKN070 FM260300 36011KT P6SM BKN040 FM261500 03010KT P6SM OVC250 KRWI 260229Z 2602/2624 VRB04KT P6SM SCT050 BKN250 TEMPO 2602/2605 2SM BR FM260500 00000KT 2SM BR SCT015 TEMPO 2605/2607 1SM BR SCT005 FM260700 00000KT 1/2SM FG OVC005 FM261300 00000KT P6SM OVC015 FM261500 25006KT P6SM SCT025 BKN035 FM262100 24007KT P6SM VCTS BKN040CB KSAW 260057Z 2601/2624 01007KT 1 1/2SM SHRA BR OVC003 FM260500 33009KT 2SM BR VCSH BKN008 FM260700 32008KT 5SM BR VCSH BKN015 FM260900 31008KT P6SM VCSH BKN020 FM261200 29007KT P6SM BKN035 FM261300 29008KT P6SM BKN030 FM261800 28010KT P6SM SCT035 KSBN 260205Z 2602/2624 22010KT P6SM -SHRA SCT020 BKN100 FM260600 31012KT P6SM BKN020 FM261400 31013G20KT P6SM SCT025 FM262300 26008KT P6SM SCT080 KSEZ 260041Z 2601/2624 04011KT P6SM SCT100 FM260300 04009KT P6SM SKC FM261800 35006KT P6SM SKC KSKF 260200Z 2602/2708 13006KT 9999 SCT040 QNH2985INS BECMG 2607/2608 VRB06KT 9999 BKN010 QNH2994INS BECMG 2614/2615 13009KT 9999 SCT015 QNH3000INS BECMG 2620/2621 13009KT 9000 -SHRA VCTS BKN030CB QNH2992INS BECMG 2701/2702 VRB06KT 9999 NSW SCT030 QNH2997INS BECMG 2705/2706 VRB06KT 9999 SCT012 QNH2998INS TX33/2621Z TN23/2609Z KSNS 260201Z 2602/2624 32008KT P6SM SKC FM260315 34006KT 5SM BR OVC007 FM261200 13004KT 4SM BR OVC005 FM261700 VRB04KT P6SM SKC FM262000 30012KT P6SM SKC KSPI 260146Z 2602/2624 31012G18KT P6SM SCT025 BKN050 FM260500 32011KT P6SM VCSH OVC025 FM261200 32008KT P6SM SCT200 KSSC 251500Z 2515/2621 VRB06KT 8000 BR OVC005 QNH3018INS BECMG 2515/2516 04006KT 9999 NSW OVC009 QNH3017INS BECMG 2516/2517 04006KT 9999 BKN010 OVC015 QNH3016INS BECMG 2517/2518 05009KT 9999 SCT015 BKN080 QNH3016INS BECMG 2518/2519 VRB06KT 9999 SCT030 SCT090 QNH3009INS BECMG 2602/2603 VRB06KT 9999 SCT015 SCT025 QNH3010INS BECMG 2607/2608 VRB06KT 8000 BR OVC015 QNH3010INS BECMG 2609/2610 VRB06KT 4800 BR OVC010 QNH3009INS BECMG 2611/2612 VRB06KT 1600 BR OVC006 QNH3009INS BECMG 2613/2614 23006KT 4800 BR OVC010 QNH3008INS BECMG 2614/2615 23009KT 8000 BR BKN015 OVC050 QNH3007INS BECMG 2616/2617 24009KT 9999 NSW SCT020 BKN100 QNH3005INS TX30/2518Z TN20/2610Z KSUU 251900Z 2519/2701 35010G15KT 9999 SKC QNH2990INS BECMG 2600/2601 23009KT 9999 SKC QNH2994INS BECMG 2615/2616 33010G15KT 9999 SKC QNH2996INS BECMG 2623/2624 23012KT 9999 SKC QNH2996INS TX34/2522Z TN13/2512Z KSVN 252000Z 2520/2702 11009KT 9999 SCT030 BKN050 QNH3003INS BECMG 2602/2603 15006KT 9999 SCT020 BKN035 QNH3007INS BECMG 2608/2609 VRB06KT 8000 BR BKN015 QNH3005INS BECMG 2614/2615 VRB06KT 9999 NSW SCT025 BKN050 QNH3005INS BECMG 2617/2618 15009KT 9999 SCT040 BKN070 QNH3001INS TX32/2619Z TN24/2611Z KSWF 260211Z 2602/2706 VRB04KT 2SM BR OVC002 TEMPO 2602/2604 5SM BR SCT002 BKN050 FM261300 21009KT 6SM BR BKN009 OVC015 FM261600 22011G18KT P6SM VCSH BKN030 FM270000 33010KT P6SM SCT030 BKN250 NOT SKED KTCM 252103Z 2521/2703 02009KT 9999 SKC QNH3024INS BECMG 2601/2602 VRB06KT 9999 SKC QNH3026INS BECMG 2617/2618 02008KT 9999 SKC QNH3016INS TX21/2523Z TN05/2614Z KTEB 260206Z 2602/2706 VRB05KT P6SM SCT008 BKN050 TEMPO 2604/2606 3SM BR BKN008 FM260600 VRB05KT 3SM BR BKN008 FM261300 20009KT P6SM BKN015 FM261800 20010KT P6SM VCSH BKN035 KTIK 260100Z 2601/2707 01012G20KT 8000 -SHRA BKN030 QNH2993INS BECMG 2608/2609 02015KT 9999 NSW BKN040 QNH3015INS BECMG 2614/2615 03012G18KT 9000 -SHRA BKN050 QNH3021INS BECMG 2621/2622 04006KT 9999 NSW BKN070 QNH3014INS TX26/2601Z TN13/2612Z KTOL 260106Z 2601/2624 22010G20KT 6SM -SHRA BR SCT015 BKN030 TEMPO 2604/2605 VRB20G30KT 1SM -TSRA BR OVC015CB FM260600 21011KT 5SM -SHRA BR OVC015 FM260800 25011KT P6SM SCT009 OVC015 TEMPO 2608/2612 BKN009 OVC015 FM261200 29015G22KT P6SM OVC010 FM261700 29015G22KT P6SM SCT030 KTTN 260140Z 2602/2624 VRB03KT 1SM BR OVC002 FM261400 23007KT P6SM OVC008 FM261600 22005KT P6SM BKN015 FM261900 25008KT P6SM VCTS BKN060CB PROB30 2620/2624 4SM SHRA OVC025 KTUL 260105Z 2601/2624 35012G24KT P6SM SCT060 BKN100 FM260300 36012KT P6SM BKN040 FM261500 03012KT P6SM OVC250 KUES 260228Z 2602/2624 30011G21KT P6SM OVC015 TEMPO 2603/2605 -SHRA FM260600 30013G22KT P6SM BKN010 FM260800 30012G21KT P6SM BKN035 KVAD 260000Z 2600/2706 11006KT 9999 FEW040 QNH3005INS BECMG 2614/2615 19009KT 9999 SCT040 QNH3000INS TEMPO 2621/2624 22012G18KT 6000 -TSRA BKN040CB BECMG 2700/2701 20006KT 9999 FEW030 BKN250 QNH3003INS TX33/2618Z TN22/2610Z KVBG 2522/2704 32006KT 9999 SCT010 QNH2993INS BECMG 2600/2601 33006KT 9999 OVC007 QNH2993INS BECMG 2605/2606 VRB06KT 3200 BR OVC003 QNH2995INS BECMG 2609/2610 VRB06KT 1600 -DZ BR OVC001 QNH2995INS BECMG 2614/2615 VRB06KT 3200 BR OVC002 QNH2998INS BECMG 2615/2616 VRB06KT 4800 BR BKN005 QNH2999INS BECMG 2618/2619 29009KT 9999 NSW SCT007 QNH2994INS BECMG 2701/2702 31006KT 4800 BR BKN004 QNH2994INS TX18/2622Z TN11/2514Z LAST NO AMDS AFT 2600 NEXT 2614 KVPS 260040Z 2600/2623 19010KT 9999 SCT030 BKN170 BKN250 QNH3003INS TEMPO 2600/2602 VRB10G15KT 9000 -TSRA BKN030CB BKN045 BECMG 2601/2602 17006KT 9999 FEW019 SCT035 BKN150 QNH2999INS BECMG 2609/2610 18010G20KT 8000 -TSRA FEW018CB BKN030 BKN150 QNH2998INS BECMG 2620/2621 22006KT 9999 NSW FEW035 SCT200 QNH2998INS BECMG 2622/2623 22015G25KT 9000 VCTS SCT017CB BKN024 OVC040 QNH2998INS TX29/2620Z TN24/2611Z KVRB 260103Z 2601/2624 17007KT P6SM VCTS SCT020 SCT030CB SCT250 TEMPO 2601/2602 VRB15G22KT 3SM TSRA BKN025CB FM260500 13005KT P6SM SCT025 FM261600 10010KT P6SM VCSH SCT030 KWRB 252100Z 2521/2703 13009KT 9999 SCT040 BKN100 QNH3005INS BECMG 2605/2606 VRB06KT 9999 FEW015 BKN030 QNH3006INS BECMG 2608/2609 VRB06KT 8000 BR BKN015 QNH3007INS BECMG 2610/2611 VRB06KT 6000 BR OVC010 QNH3008INS BECMG 2611/2612 VRB06KT 6000 BR OVC007 QNH3010INS BECMG 2614/2615 21006KT 8000 BR OVC010 QNH3010INS BECMG 2615/2616 21006KT 9999 NSW OVC015 QNH3010INS BECMG 2616/2617 22006KT 9999 FEW030 BKN070 QNH3000INS BECMG 2622/2623 VRB06KT 9999 BKN035 QNH3000INS TX33/2619Z TN23/2611Z KWRI 260200Z 2602/2708 18006KT 9999 BKN030 QNH3003INS BECMG 2606/2608 19009KT 8000 BR BKN008 QNH2997INS BECMG 2614/2615 21012G18KT 9999 NSW BKN020 QNH2986INS BECMG 2623/2624 VRB06KT 8000 -SHRA BKN015 OVC020 QNH2989INS TEMPO 2700/2703 6000 -TSRA OVC015CB BECMG 2706/2707 36006KT 9999 NSW BKN150 QNH3000INS TX28/2618Z TN20/2612Z KYNG 260116Z 2601/2624 18011KT P6SM VCSH SCT009 OVC012 FM260300 20014G22KT 5SM -SHRA BR OVC020 TEMPO 2606/2608 5SM -TSRA BR OVC015CB FM260800 21011KT 5SM -SHRA BR OVC009 TEMPO 2608/2610 OVC010 FM261400 29014G21KT 5SM BR VCSH OVC007 FM261900 31010G20KT P6SM OVC015 L 252119Z 2521/2618 VRB02KT 9999 SCT035= LCRA 260150Z 2603/2621 33005KT CAVOK BECMG 2609/2612 24015KT BECMG 2618/2621 26005KT LDSB 251503Z 2515/2612 CNL LEAM 260200Z 2603/2703 06015KT CAVOK TX30/2615Z TN23/2605Z PROB40 TEMPO 2606/2621 05020G30KT LEAS 260200Z 2603/2703 14005KT CAVOK TX23/2615Z TN10/2605Z TEMPO 2612/2618 03010KT LECO 260200Z 2603/2703 VRB05KT CAVOK TX29/2613Z TN11/2606Z PROB40 TEMPO 2612/2618 33010KT LEGR 260200Z 2603/2703 VRB03KT 9999 SCT050 TX30/2613Z TN18/2606Z PROB40 TEMPO 2612/2620 4000 SHRA FEW040TCU PROB30 TEMPO 2612/2620 TSRA FEW030CB LEIB 260200Z 2603/2703 03010KT 9999 FEW040 TX26/2612Z TN19/2605Z PROB40 TEMPO 2603/2615 4000 SHRA BKN020 FEW025TCU BECMG 2606/2609 07016KT BECMG 2623/2702 05009KT LELL 260200Z 2603/2703 04006KT 9999 SCT040 TX26/2612Z TN16/2606Z BECMG 2607/2610 07012KT BECMG 2618/2620 VRB04KT LEMH 260200Z 2603/2703 06014KT 9999 FEW020 TX27/2612Z TN19/2605Z PROB30 TEMPO 2603/2606 6000 SHRA BKN020 FEW025TCU BECMG 2618/2620 06008KT LEPP 260200Z 2603/2703 VRB03KT 9999 SCT030 TX28/2615Z TN09/2603Z BECMG 2603/2607 17010KT TEMPO 2609/2618 18015G30KT LERS 260200Z 2603/2703 02008KT 9999 SCT040 TX26/2612Z TN17/2606Z BECMG 2607/2610 09012KT BECMG 2618/2620 02006KT LEXJ 260200Z 2603/2703 12005KT CAVOK TX29/2614Z TN10/2605Z PROB40 TEMPO 2606/2618 19010KT LEZL 260200Z 2603/2703 07009KT CAVOK TX36/2614Z TN23/2603Z PROB40 TEMPO 2614/2620 4000 SHRA FEW040TCU LFBU 252037Z 2520/2618 CNL LFKB 260200Z 2603/2703 04010KT CAVOK TX23/2612Z TN15/2604Z BECMG 2619/2621 24005KT LFKC 260200Z 2603/2703 03015G25KT CAVOK TX25/2615Z TN15/2604Z TEMPO 2607/2615 03020G33KT BECMG 2618/2620 18004KT LFKF 260200Z 2603/2703 06015G25KT CAVOK TEMPO 2603/2615 06020G35KT BECMG 2618/2620 05004KT LFKJ 260200Z 2603/2703 05005KT CAVOK BECMG 2607/2609 23010KT BECMG 2619/2620 04005KT LFKS 251534Z 2515/2615 CNL LFLC 260200Z 2603/2703 VRB03KT CAVOK TEMPO 2603/2612 18008KT TEMPO 2615/2620 35006KT BECMG 2620/2622 18008KT LFLP 260200Z 2603/2703 VRB03KT CAVOK LFLS 260200Z 2603/2703 09004KT CAVOK TEMPO 2612/2618 24006KT LFMD 260200Z 2603/2703 10010KT CAVOK TEMPO 2603/2606 VRB05KT PROB30 TEMPO 2606/2610 09015G25KT BECMG 2617/2619 VRB02KT LFMH 260200Z 2603/2703 14006KT CAVOK LFMI 260200Z 2603/2703 VRB03KT CAVOK BECMG 2609/2612 24009KT BECMG 2617/2621 VRB03KT LFMK 260200Z 2603/2703 08011KT 9999 FEW040 BECMG 2607/2609 09015G25KT TEMPO 2611/2615 09020G33KT BECMG 2618/2620 09012KT LFML 260200Z 2603/2709 VRB03KT CAVOK TX26/2613Z TN15/2604Z BECMG 2609/2612 24009KT BECMG 2617/2620 VRB03KT LFMN 260200Z 2603/2709 11012KT CAVOK TEMPO 2603/2607 34008KT BECMG 2617/2619 34010KT LFMO 260200Z 2603/2703 34005KT CAVOK LFMP 260200Z 2603/2703 VRB02KT 9999 FEW040 BECMG 2607/2609 14012KT TEMPO 2611/2615 14015G25KT BECMG 2620/2622 34003KT LFMT 260200Z 2603/2703 VRB05KT CAVOK TEMPO 2603/2609 08010KT BECMG 2611/2613 18010KT BECMG 2617/2619 VRB05KT LFMU 260200Z 2603/2703 05006KT 9999 FEW030 BKN050 BECMG 2608/2610 14012KT CAVOK BECMG 2619/2621 04005KT LFMV 260200Z 2603/2703 VRB03KT CAVOK BECMG 2609/2612 27007KT BECMG 2617/2621 VRB03KT LFMY 251453Z 2515/2615 CNL LFOH 251800Z 2518/2612 CNL LFOP 252000Z 2520/2618 CNL LFRI 252100Z 2521/2618 CNL LFRL 251658Z 2516/2612 CNL LFRO 251930Z 2519/2612 CNL LFRQ 252056Z 2520/2618 CNL LFSI 260200Z 2603/2703 VRB02KT CAVOK LFSO 260159Z 2601/2621 CNL LFSX 260157Z 2601/2621 CNL LFTH 260200Z 2603/2703 06013KT CAVOK BECMG 2603/2606 07017G27KT TEMPO 2606/2615 09027G37KT BECMG 2618/2621 05007KT LFTW 260200Z 2603/2703 01005KT CAVOK BECMG 2613/2615 20010KT BECMG 2618/2620 VRB05KT LFVP 252313Z 2523/2603 CNL LICD 252139Z 2518/2618 CNL LICR 252223Z 2518/2618 CNL= LIPY 252223Z 2518/2618 CNL LIMP 251937Z 2518/2618 CNL LIMZ 251900Z 2518/2618 CNL LIPB 252142Z 2518/2618 CNL LIPY 252223Z 2518/2618 CNL LJLJ 260200Z 2603/2703 13005KT 9999 FEW050 TEMPO 2603/2608 30003KT CAVOK BECMG 2616/2618 30003KT CAVOK LJMB 260200Z 2603/2703 02005KT CAVOK BECMG 2609/2611 17005KT TEMPO 2613/2618 18010KT FEW050 BECMG 2619/2622 36003KT LKCV 252300Z 2600/2700 VRB02KT CAVOK BECMG 2608/2611 21007KT BECMG 2620/2622 VRB02KT LKNA 252300Z 2600/2700 VRB02KT CAVOK BECMG 2607/2609 15008KT LKPD 252300Z 2600/2700 VRB02KT CAVOK BECMG 2607/2609 22006KT LOWW 260215Z 2603/2709 VRB02KT CAVOK TX16/2614Z TN03/2605Z BECMG 2607/2609 15007KT TEMPO 2612/2616 15015KT BECMG 2618/2620 VRB02KT LQTZ 252301Z 2523/2618 CNL MMAN 251729Z 2518/2618 12015KT P6SM SCT015 FM252200 14015KT P6SM BKN020CB BKN100 TEMPO 2522/2602 5SM TSRA FM260500 00000KT 5SM HZ OVC015 FM261500 00000KT 4SM HZ SCT015 SCT100 MMBT 251718Z 2518/2618 16010KT 5SM RA BKN025CB BKN200 TEMPO 2519/2522 3SM TSRA BKN010CB FM252300 00000KT P6SM SCT015 BKN100 TEMPO 2612/2616 VC CB MMCB 251506Z 2515/2606 23005KT 4SM HZ SCT010 BKN070 FM251800 00000KT P6SM SCT020 FM252200 23010KT P6SM BKN025 TEMPO 2523/2603 5SM TSRA BKN020CB MMCE 260110Z 2601/2618 04010KT P6SM SCT020 BKN080 TEMPO 2601/2605 VC RA FM260500 12015KT P6SM SCT015 FM261700 07010KT P6SM BKN020 MMCL 251712Z 2518/2618 20010KT P6SM SCT020 SCT230 FM252200 24010KT P6SM SCT020CB BKN250 FM260300 24015KT P6SM BKN020CB OVC100 TEMPO 2604/2608 5SM TSRA FM261500 23010KT P6SM SCT015 SCT100 BKN250 MMCM 251710Z 2518/2618 12012KT P6SM SCT015 BKN120 FM261000 12012KT 5SM RA BKN015CB FM261500 12015KT P6SM BKN015 MMCP 260129Z 2601/2618 09005KT P6SM -RA OVC120 FM260300 12010KT P6SM SCT020 BKN120 FM261200 00000KT 2SM BR BKN005 FM261400 12010KT P6SM SCT015 MMCS 251729Z 2518/2618 25015KT P6SM SCT030 SCT100 TEMPO 2521/2601 BKN030 FM260300 26015KT P6SM BKN030CB BKN120 TEMPO 2606/2610 6SM TSRA FM261500 00000KT P6SM SCT100 BKN250 MMCU 251729Z 2518/2618 16015KT P6SM SCT030 BKN100 FM252200 20015KT P6SM BKN025CB OVC120 TEMPO 2522/2602 4SM TSRA BECMG 2603/2604 24010KT TEMPO 2603/2607 5SM TSRA FM261200 00000KT P6SM SCT020 BKN100 BKN240 FM261500 23010KT P6SM SCT040 BKN250 MMEP 260057Z 2601/2618 22005KT P6SM BKN015 TEMPO 2606/2610 5SM RA FM261000 00000KT 3SM BR BKN010 FM261600 32010KT P6SM SCT020 SCT250 MMHO 251712Z 2518/2618 16015KT P6SM SCT030 FM260000 20010KT P6SM SCT020CB BKN250 TEMPO 2606/2610 6SM TSRA BKN020CB FM261400 00000KT P6SM SCT100 BKN250 MMIA 260151Z 2602/2618 00000KT 3SM DZ OVC015 FM260300 00000KT P6SM SCT015 BKN080 FM261200 00000KT 3SM BR BKN010 FM261400 00000KT P6SM SCT015 BKN250 MMIO 251729Z 2518/2618 06015KT P6SM SCT030 FM252200 10015KT P6SM BKN020CB BKN100 TEMPO 2522/2602 5SM TSRA FM260400 00000KT 4SM HZ OVC015 FM261500 12010KT P6SM SCT010 SCT070 MMLO 260059Z 2601/2618 31006KT P6SM SCT030 TEMPO 2610/2614 5SM HZ BKN020 FM261700 07008KT P6SM SCT030 MMLP 251712Z 2518/2618 03010KT P6SM SCT030 SCT230 FM252300 10010KT P6SM SCT020CB BKN100 BKN230 FM261000 00000KT P6SM SCT100 BKN250 FM261600 13010KT P6SM SCT020 BKN250 MMML 251712Z 2518/2618 03015KT P6SM SKC FM252200 06010KT P6SM SCT030 SCT100 FM261000 00000KT P6SM SCT230 FM261500 13010KT P6SM SCT040 SCT250 MMMT 251710Z 2518/2618 36012KT P6SM BKN020 FM252000 36012KT P6SM SCT025 BKN250 TEMPO 2600/2604 3SM TSRA BKN015CB FM260600 00000KT 5SM HZ BKN020 PROB40 2612/2616 5SM RA SCT015CB MMOX 251719Z 2518/2618 14010KT P6SM BKN020 BKN250 FM252100 14012KT 6SM VC RA BKN025 TEMPO 2521/2601 4SM TSRA BKN020CB FM260300 00000KT P6SM SCT015 BKN080 FM261200 00000KT P6SM BKN250 MMPA 251508Z 2515/2606 30005KT 5SM HZ SKC FM251800 06010KT P6SM BKN020 FM252100 12012KT P6SM SCT025 MMPG 251508Z 2515/2606 12005KT P6SM OVC005 FM251800 12010KT P6SM SKC MMPN 260103Z 2601/2618 00000KT 6SM HZ SCT020 OVC100 TEMPO 2601/2605 VC RA FM260500 00000KT 5SM HZ SCT015 TEMPO 2612/2616 2SM BR BKN010 MMPQ 260131Z 2602/2618 09008KT P6SM SCT080 SCT200 FM260600 09010KT P6SM SCT015 BKN080 TEMPO 2612/2616 3SM BR BKN010 MMTC 251729Z 2518/2618 16015KT P6SM SCT030 TEMPO 2521/2601 BKN030 FM260200 20010KT P6SM VC TS SCT020CB BKN100 FM261200 00000KT P6SM SCT100 BKN250 FM261500 24010KT P6SM SCT230 MMTG 251719Z 2518/2618 03015KT P6SM BKN020 BKN100 FM252100 06015KT P6SM OVC010CB TEMPO 2521/2601 3SM TSRA BECMG 2602/2603 10010KT TEMPO 2602/2606 4SM TSRA FM260900 00000KT 4SM HZ OVC010 FM261500 10010KT 5SM HZ SCT010 BKN100 MMVA 251710Z 2518/2618 12010KT P6SM SCT015 FM252100 03010KT P6SM SCT015CB BKN070 TEMPO 2522/2602 2SM TSRA BKN010CB FM260300 09010KT P6SM SCT015 TEMPO 2610/2614 2SM BR BKN010 MTCH 251700Z 2518/2618 12014KT 9000 FEW020 PROB30 TEMPO 2523/2609 4800 -TSRA SCT020CB SCT030 BECMG 2610/2612 VRB02KT 7000 NSW FEW016 BECMG 2614/2617 10012KT 9000 MTPP 251700Z 2518/2618 12014KT 9000 FEW020 PROB30 TEMPO 2523/2609 4800 -TSRA SCT020CB SCT030 BECMG 2610/2612 VRB02KT 7000 NSW FEW016 BECMG 2614/2617 10012KT 9000 MUGM 2515/2615 12015KT 9999 FEW032 SCT280 QNH2995INS BECMG 2515/2517 12019G26KT 9999 FEW032CB SCT280 520006 QNH2988INS BECMG 2522/2600 09012KT 9999 FEW032 SCT280 500000 QNH2988INS FM260300 34006KT 9999 FEW032 SCT280 QNH2992INS T34/2517Z T24/2610Z FN20026 MWCB 251700Z 2518/2618 080010KT 9999 VCSH FEW018 NLWF 251943Z 2519/2618 10015KT 9999 FEW015 BKN020 TEMPO 2519/2522 4500 SHRA BKN014 FEW018TCU NTAA 251700Z 2518/2624 VRB03KT 9999 FEW025 SCT050 PROB30 TEMPO 2519/2604 20015KT NVSS 251600Z 2518/2618 13010KT 9999 SCT020 OVC110 INTER 2518/2524 7000 SHRA BKN018 OVC040 NVVV 251600Z 2518/2618 13012KT 9999 SCT020 OVC100 INTER 2518/2524 8000 -RA FEW010 BKN018 OVC090 NZAA 251712Z 2518/2618 26018KT 9999 -SHRA FEW030 SCT040 BECMG 2520/2522 26018G30KT BECMG 2606/2608 24010KT NZCH 251712Z 2518/2618 20008KT 9999 FEW050 BECMG 2520/2522 22015G25KT BECMG 2606/2608 22008KT NZQN 251713Z 2518/2612 20015G25KT 9999 -SHRA BKN060 BECMG 2602/2604 22018KT BECMG 2606/2608 22008KT NZWN 251712Z 2518/2618 36012KT CAVOK FM252300 18012G25KT 9999 SCT050 TEMPO 2523/2602 7000 SHRA BECMG 2601/2603 18010KT OAHR 260130Z 2602/2624 04008KT CAVOK BECMG 2608/2610 35012KT BECMG 2615/2617 VRB03KT OAIX 260130Z 2601/2705 VRB06KT 9999 SKC QNH3000INS TEMPO 2601/2602 04012G18KT 3200 +TSRAGS OVC050CB BECMG 2606/2607 23012G18KT 9999 VCTS BKN100CB QNH2995INS TEMPO 2609/2614 31015G25KT 5000 -TSRA BKN080CB BECMG 2613/2614 23009KT 9999 NSW FEW150 QNH2992INS TX29/2610Z TN13/2603Z OAJL 260038Z 2600/2706 VRB06KT 9999 BKN050 QNH2983INS TEMPO 2600/2603 VCTS BKN050CB TEMPO 2607/2613 12012KT 9000 -TSRA BKN080CB BECMG 2613/2614 14009KT 9000 HZ VCTS BKN090CB QNH2980INS BECMG 2617/2618 VRB06KT 9999 NSW FEW150 QNH2981INS TX32/2611Z TN21/2602Z OAKN 251500Z 2515/2621 VRB06KT 9999 FEW200 QNH2983INS BECMG 2608/2609 26010G15KT 9999 SCT200 QNH2986INS TEMPO 2609/2612 33015G30KT 3200 BLDU VCTS BKN180CB BECMG 2613/2614 25006KT 9999 FEW140 QNH2984INS BECMG 2616/2617 VRB04KT 9999 SKC QNH2987INS TX33/2610Z TN16/2601Z OODQ 251700Z 2518/2618 20020KT 8000 NSC PROB30 TEMPO 2522/2603 4000 BR BKN010 ORBD 251855Z 2519/2701 33009KT 8000 FUHZ SKC QNH2972INS WND 270V030 TX40/2612Z TN22/2602Z LAST NO AMDS AFT 2519 NEXT 2603 ORMM 251700Z 2518/2618 29010KT 8000 NSC ORSU 251700Z 2518/2618 32008KT CAVOK BECMG 2605/2607 VRB04KT 8000 NSC BECMG 2609/2611 24010KT CAVOK OTBH 251500Z 2515/2621 VRB06KT 5000 HZ SKC QNH2969INS BECMG 2608/2609 34012G18KT 6000 HZ SKC QNH2967INS BECMG 2614/2615 03006KT 5000 HZ SKC QNH2970INS TX43/2611Z TN27/2602Z PABI 252200Z 2522/2704 11009KT 9999 VCSH FEW030 BKN060 QNH3002INS BECMG 2605/2606 VRB06KT 6000 BR VCSH BKN015 600307 QNH3011INS TEMPO 2616/2619 9000 -RA BKN010 BECMG 2618/2620 26009KT 9999 NSW SCT015 BKN025 600307 QNH3033INS TX12/2601Z TN03/2613Z PADL 260006Z 2600/2624 21009KT P6SM VCSH BKN050 FM262000 36011G17KT P6SM FEW250 PAED 252339Z 2523/2701 18009KT 9999 BKN060 610604 QNH3000INS BECMG 2615/2616 VRB06KT 9999 BKN040 620406 QNH3012INS TX16/2602Z TN06/2614Z PAEI 260215Z 2602/2702 21009KT 9999 VCSH BKN050 600505 QNH3004INS BECMG 2608/2609 26006KT 8000 -RA BR BKN015 OVC050 600307 QNH3018INS BECMG 2618/2619 27003KT 9999 NSW SCT015 BKN030 600307 QNH3028INS TX10/2602Z TN04/2612Z PAFB 252000Z 2520/2702 21009KT 9999 VCSH BKN025 OVC035 600405 QNH2999INS TEMPO 2521/2603 21012G18KT BECMG 2606/2607 VRB06KT 9000 -RA BKN010 OVC020 600405 QNH3012INS BECMG 2623/2700 VRB06KT 9999 NSW SCT021 BKN030 600302 QNH3033INS TX11/2600Z TN04/2615Z PAGA 260103Z 2601/2624 23011G17KT P6SM -SHRA BKN021 BKN028 OVC040 FM260400 20004KT P6SM -SHRA SCT008 BKN012 OVC040 FM261400 20003KT P6SM SCT012 BKN040 FM262000 15004KT P6SM SCT040 BKN090 PAKT 260132Z 2602/2624 13006KT 4SM -RA BR BKN007 OVC015 FM261400 14013KT 4SM -RA BR BKN007 OVC015 FM261800 14014KT 3SM -RA BR SCT007 OVC015 LTD TO CLD VIS AND WIND 2606/2615 PASY 260110Z 2601/2706 20020G25KT 9999 BKN015 OVC120 QNH3002INS TEMPO 2601/2603 SCT015 BECMG 2602/2603 20025G30KT 9999 BKN015 510003 QNH3002INS BECMG 2603/2604 20025G35KT 6000 -RA OVC010 620609 510003 QNH2990INS BECMG 2617/2618 23012KT 9999 NSW OVC004 620609 QNH2980INS TX13/2602Z TN08/2614Z PGUA 260200Z 2602/2708 26006KT 9999 SCT015 BKN020 BKN150 QNH2970INS BECMG 2612/2613 36006KT 9999 SCT015 SCT100 QNH2974INS BECMG 2623/2624 08006KT 9999 VCSH SCT015 BKN040 QNH2972INS TX32/2602Z TN23/2612Z PHHI 252300Z 2523/2705 17009KT 9999 VCSH SCT020 SCT200 QNH2980INS BECMG 2612/2613 18006KT 9999 NSW SCT030 BKN040 QNH2984INS TEMPO 2702/2705 8000 -SHRA BKN020 TX32/2600Z TN20/2612Z PHNG 2601/2621 13008KT 9999 FEW025 BKN065 QNH2975INS TEMPO 2601/2604 19008KT BKN025 OVC050 FM260500 13008KT 9999 FEW020 BKN035 BKN060 QNH2980INS TEMPO 2611/2615 8000 -SHRA BKN020 OVC045 FM261800 VRB05KT 9999 FEW020 SCT035 SCT055 QNH2981INS T31/2602Z T25/2613Z 0121 PWAK 252351Z 2523/2704 07015KT 9999 VCSH BKN015 BKN040 QNH2981INS BECMG 2602/2603 09012KT 9999 VCSH SCT015 BKN030 QNH2981INS TEMPO 2604/2612 9000 -SHRA BKN015 TX32/2600Z TN25/2616Z RJCC 260015Z 2600/2706 16005KT 9999 FEW015 BKN030 BECMG 2602/2604 34008KT BECMG 2700/2703 15005KT RJOI 2521/2621 04014G20KT 9999 FEW030 FEW050 BKN070 BKN280 520005 523006 QNH2995INS FM260300 04012G18KT 9999 SCT030 SCT070 BKN180 BKN240 621906 520005 541805 QNH2992INS FM260900 03010G16KT 9999 SCT030 SCT070 BKN180 BKN240 621906 520005 541805 QNH2991INS FM261400 02008G14KT 9999 SCT020 SCT180 BKN240 621906 520005 QNH2988INS FM262000 01010G16KT 9999 SCT015 SCT180 BKN240 621906 520005 QNH2989INS T25/2606Z T18/2620Z RJSK 260216Z 2602/2706 28005KT 9999 FEW030 BECMG 2608/2610 13004KT RJTY 252215Z 2522/2703 02009KT 4800 -RA BR BKN007 OVC009 QNH3008INS BECMG 2600/2601 06010G15KT 9999 VCSH BKN015 OVC040 QNH3003INS BECMG 2606/2607 03009KT 8000 -RA BR BKN015 OVC025 QNH3004INS BECMG 2610/2611 01009KT 8000 -RA BR OVC009 QNH2998INS TX22/2603Z TN15/2620Z RKJK 252300Z 2523/2705 07006KT 9999 BKN160 QNH3006INS BECMG 2604/2605 06009KT 9999 SCT040 QNH3005INS BECMG 2611/2612 06006KT 9999 FEW040 QNH3007INS TX22/2604Z TN14/2523Z RKSG 252000Z 2520/2702 08006KT 9999 BKN160 QNH3010INS BECMG 2604/2605 08009KT 9999 SCT040 QNH3008INS TEMPO 2605/2609 08010G15KT BECMG 2613/2614 07006KT 9999 FEW050 QNH3010INS TX23/2604Z TN14/2522Z RKSO 251900Z 2519/2701 07006KT 9999 BKN160 QNH3010INS BECMG 2604/2605 08009KT 9999 SCT040 QNH3008INS BECMG 2613/2614 07006KT 9999 FEW050 QNH3010INS TX23/2604Z TN08/2522Z RODN 260000Z 2600/2706 05015G25KT 9999 VCSH SCT020 SCT160 QNH2958INS TEMPO 2600/2603 6000 -SHRA BKN020 BECMG 2610/2611 06012G18KT 9999 VCSH SCT025 BKN150 QNH2953INS WND 06015G25KT AFT 2621 TEMPO 2622/2703 6000 -SHRA BKN020 TX30/2606Z TN24/2620Z SAAR 252300Z 2600/2624 09010KT CAVOK TX24/2618Z TN15/2610Z BECMG 2602/2605 14005KT 8000 SCT025 TEMPO 2606/2612 5000 DZ BKN020 OVC035 BECMG 2612/2615 12010KT SCT030 SABE 252300Z 2600/2624 09010KT 9999 SCT030 SCT040 BKN100 TX20/2619Z TN16/2610Z TEMPO 2602/2607 11005KT 8000 DZ BKN020 OVC030 BECMG 2610/2613 11015KT 9999 SCT030 SACO 252300Z 2600/2624 05005KT CAVOK TX25/2618Z TN11/2610Z TEMPO 2608/2611 VRB02KT 5000 BR SCT020 BECMG 2618/2621 14015KT 5000 RASH BKN025 BKN030 FEW040CB SADF 252300Z 2600/2624 10015KT CAVOK TX22/2619Z TN15/2610Z TEMPO 2602/2607 11005KT 7000 DZ BKN015 OVC030 BECMG 2610/2613 11015KT 9999 SCT030 SAEZ 252300Z 2600/2624 09010KT 9999 SCT050 TX23/2618Z TN14/2610Z PROB30 TEMPO 2603/2610 5000 -DZ BR BKN030 BECMG 2612/2614 13010KT SCT040 SAME 252300Z 2600/2624 14005KT 9999 FEW040 SCT080 TN11/2610Z TX24/2620Z BECMG 2602/2604 20005KT 9999 SCT030 SCT070 BECMG 2614/2616 16010KT 9999 SCT040 SCT080 SANT 252300Z 2600/2624 05005KT 7000 BKN025 BKN030 FEW040CB TX26/2618Z TN14/2610Z TEMPO 2608/2611 VRB03KT 3000 BR BKN015 BECMG 2615/2618 07005KT 9999 BKN025 FEW040CB SARE 252300Z 2600/2624 09010KT 8000 -TSRA BKN006 OVC020 FEW050CB TX27/2618Z TN18/2610Z PROB40 TEMPO 2602/2604 2000 +TSRA OVC003 SCT045CB PROB30 2611/2615 9999 BKN020 SARF 252300Z 2600/2624 09010KT 8000 -TSRA BKN006 OVC020 FEW050CB TX28/2618Z TN19/2610Z BECMG 2611/2614 9999 BKN015 SARI 252300Z 2600/2624 14005KT 8000 -RA BKN020 OVC040 TX25/2618Z TN18/2610Z BECMG 2600/2602 4000 TSRA BKN010 OVC040 FEW050CB BECMG 2618/2621 9999 BKN020 SARP 252300Z 2600/2624 07010KT 9999 FEW030 TX26/2618Z TN18/2610Z BECMG 2602/2603 09010KT 8000 -TSRA BKN006 OVC020 FEW050CB PROB30 2611/2615 9999 BKN020 SASA 252300Z 2600/2624 05005KT 9999 BKN025 BKN030 FEW040CB TX26/2618Z TN14/2610Z TEMPO 2608/2611 VRB03KT 3000 BR BKN015 BECMG 2615/2618 07005KT 9999 BKN025 FEW040CB SASJ 252300Z 2600/2624 05005KT 9999 BKN025 BKN030 FEW040CB TX26/2618Z TN14/2610Z TEMPO 2608/2611 VRB03KT 3000 BR BKN015 BECMG 2615/2618 07005KT 9999 BKN025 FEW040CB SAVC 251700Z 2518/2618 29015KT 9999 SCT040 SCT050 TX15/2520Z TN04/2610Z BECMG 2519/2520 14015G25KT 8000 RA SCT020 OVC050 PROB30 TEMPO 2600/2603 VRB03KT 2000 BR NSC SAWE 251700Z 2518/2618 23010KT 9999 SCT025 BKN100 TX07/2518Z TNM04/2512Z BECMG 2522/2602 VRB05KT 9999 BKN020 TEMPO 2603/2606 5000 BR SCT010 SAWG 251700Z 2518/2618 VRB03KT 9999 FEW030 TX09/2518Z TNM01/2606Z BECMG 2615/2617 33015/25KT SAWH 251700Z 2518/2618 23015KT 9999 BKN040 TX06/2518Z TNM02/2610Z BECMG 2602/2605 32010KT CAVOK SAZM 252300Z 2600/2624 36005KT 9999 FEW025 TX17/2519Z TN09/2610Z BECMG 2602/2604 8000 BKN025 OVC050 TEMPO 2604/2608 6000 -RA BKN020 OVC040 BECMG 2611/2614 18015KT 9999 SCT030 SAZN 252300Z 2600/2624 25010KT CAVOK TX15/2600Z TN06/2624Z BECMG 2608/2610 11010KT BKN020 OVC050 BECMG 2612/2615 09010KT 7000 -RA BKN015 OVC045 TEMPO 2618/2622 9999 NSW SCT030 OVC050 SAZS 252300Z 2600/2624 29010KT 9999 SCT045 TX09/2618Z TN00/2610Z BECMG 2602/2605 VRB03KT BECMG 2613/2615 03010KT 9999 SCT030 BKN050 BECMG 2616/2619 05010KT 8000 RA SCT020 OVC045 SBAF 251400Z 2518/2606 23012KT 7000 SCT040 TX33/2518Z TN23/2605Z BECMG 2521/2523 17005KT CAVOK BECMG 2601/2603 22004KT SCT020 RMK PDV SBAN 252200Z 2600/2612 33005KT CAVOK TX22/2600Z TN19/2609Z RMK PDB SBAR 252200Z 2600/2612 11008KT 9999 SCT017 TN25/2609Z TX27/2611Z RMK PCN SBAT 252200Z 2600/2612 05004KT CAVOK TN20/2607Z TX25/2611Z RMK PFM SBBE 252200Z 2600/2624 06005KT CAVOK TN24/2609Z TX31/2616Z BECMG 2611/2613 07011KT 9999 SCT030 BECMG 2616/2618 BKN035 FEW040TCU BECMG 2621/2623 CAVOK RMK PFM SBBI 251400Z 2518/2606 08005KT 9999 FEW020 TX25/2518Z TN16/2605Z PROB30 TEMPO 2518/2520 VCTS BKN020 FEW030CB BECMG 2522/2524 SCT006 RMK PDV SBBR 252200Z 2600/2624 20005KT CAVOK TN16/2607Z TX32/2616Z BECMG 2612/2614 03007KT 8000 NSC BECMG 2621/2623 20005KT RMK PDB SBBU 252130Z 2600/2612 12010KT CAVOK TN20/2609Z TX27/2612Z RMK PDW SBBV 252200Z 2600/2624 10004KT CAVOK TN26/2608Z TX35/2618Z BECMG 2612/2614 09008KT 9999 SCT030 BECMG 2616/2618 SCT035 FEW040TCU RMK PFM SBBW 252200Z 2600/2612 04005KT CAVOK TX28/2600Z TN22/2608Z RMK PDB SBCF 252200Z 2600/2624 13005KT CAVOK TN19/2608Z TX30/2616Z BECMG 2610/2612 09007KT RMK PDB SBCG 252130Z 2600/2624 03008KT CAVOK TN21/2608Z TX33/2617Z BECMG 2612/2614 34010KT 9999 FEW035 BECMG 2616/2618 SCT040 FEW045TCU BECMG 2620/2622 VCTS SCT045 FEW050CB RMK PDW SBCJ 252200Z 2600/2612 00000KT CAVOK TN18/2608Z TX25/2612Z BECMG 2609/2611 07002KT RMK PFM SBCO 252130Z 2600/2612 11005KT 7000 SCT008 TN18/2608Z TX22/2612Z BECMG 2606/2608 5000 BR FEW008 RMK PDW SBCP 252139Z 2600/2612 02010KT 9999 SCT020TN24/2610Z TX27/2612Z RMK PHI SBCR 251400Z 2518/2618 09015KT 9999 SCT025 TX33/2518Z TN24/2609Z BECMG 2600/2602 05004KT CAVOK BECMG 2606/2608 11005KT BECMG 2612/2614 SCT030 RMK PDV SBCT 252130Z 2600/2624 08005KT 9999 FEW008 TN14/2608Z TX23/2617Z BECMG 2600/2602 BKN005 BECMG 2604/2606 8000 FEW005 PROB40 TEMPO 2609/2611 2000 BCFG BKN002 BECMG 2611/2613 03007KT 9999 NSW FEW030 BECMG 2621/2623 12010KT 5000 TSRA BKN008 FEW030CB RMK PDW SBCY 252200Z 2600/2624 33008KT CAVOK TN24/2609Z TX36/2618Z BECMG 2615/2617 30009KT 9999 SCT020 BECMG 2618/2620 9999 SCT030 FEW035TCU RMK PFM SBDN 252130Z 2600/2612 12007KT CAVOK TN21/2609Z TX27/2612Z RMK PDW SBEG 252200Z 2600/2624 35003KT CAVOK TN22/2608Z TX35/2618Z BECMG 2609/2611 04003KT BECMG 2613/2615 06006KT SCT025 BECMG 2618/2620 09008KT SCT025 FEW030TCU BECMG 2622/2624 CAVOK RMK PFM SBFI 252130Z 2600/2624 12010KT 9999 FEW020 TN19/2608Z TX24/2616Z PROB40 TEMPO 2610/2612 VCTS BKN010 FEW030CB BECMG 2612/2614 SCT020 FEW030TCU PROB40 TEMPO 2616/2618 8000 SHRA BKN020 FEW030TCU BECMG 2618/2620 SCT030 RMK PDW SBFL 252130Z 2600/2624 34005KT 9999 BKN025 TN19/2608Z TX24/2615Z PROB40 TEMPO 2604/2611 8000 BKN010 BECMG 2611/2613 36010KT SCT030 PROB40 TEMPO 2621/2623 8000 SHRA BKN035 FEW040TCU RMK PDW SBFN 252200Z 2600/2612 13012KT 9000 SCT015 TN25/2608Z TX28/2611Z PROB40 2608/2811 6000 SHRA BKN014 RMK PCN SBFZ 252200Z 2600/2624 09011KT 9999 SCT022 TN25/2609Z TX30/2615Z BECMG 2611/2612 09017KT BECMG 2620/2621 08011KT RMK PCN SBGL 252139Z 2600/2706 13010KT 8000 FEW025TN22/2609Z TX33/2617Z BECMG 2600/2602 27005KT BECMG 2607/2609 34005KT 4000 BR BKN010 BECMG 2612/2614 04010KT 8000 NSW FEW015 BECMG 2618/2620 10010KT BECMG 2622/2624 27005KT RMK PHI SBGO 252200Z 2600/2624 33005KT CAVOK TN20/2609Z TX35/2618Z BECMG 2611/2613 27005KT BECMG 2616/2618 30005KT BECMG 2621/2623 34005KT RMK PDB SBGR 252200Z 2600/2706 12003KT 7000 BKN011TN17/2609Z TX33/2618Z BECMG 2600/2602 00000KT PROB30 2602/2606 NSC PROB40 2606/2610 4000 BR OVC005 BECMG 2610/2612 04007KT CAVOK BECMG 2614/2616 33010KT 9999 SCT045 BECMG 2617/2619 28010KT CAVOK BECMG 2621/2623 00000KT RMK PGE SBGW 251400Z 2518/2606 04002KT 7000 FEW030 TX32/2518Z TN18/2605Z BECMG 2522/2524 10005KT 8000 BKN020 RMK PDV SBIH 252200Z 2600/2612 00000KT CAVOK TN20/2608Z TX25/2611Z BECMG 2610/2612 09007KT SCT023 RMK PFM SBIL 252200Z 2600/2612 07006KT 9000 SCT015 SCT020 TX26/2600Z TN23/2608Z PROB40 TEMPO 2602/2607 6000 SHRA RMK PCN SBIZ 252200Z 2600/2612 00000KT CAVOK TN24/2607Z TX32/2612Z BECMG 2604/2606 9999 FEW018 BECMG 2607/2608 05007KT BECMG 2610/2611 SCT020 RMK PFM SBJP 252200Z 2600/2624 12006KT 9999 SCT020 TN22/2608Z TX30/2615Z BECMG 2611/2612 11013KT BECMG 2621/2622 12006KT RMK PCN SBJV 252130Z 2600/2612 08005KT 9999 SCT012 TN18/2608Z TX22/2612Z BECMG 2602/2604 33003KT 5000 BR BKN003 BECMG 2609/2611 9999 NSW FEW003 SCT040 RMK PDW SBKG 252200Z 2600/2612 10010KT 9000 SCT012 TN21/2608Z TX24/2611Z PROB40 2602/2609 BKN008 RMK PCN SBKP 252200Z 2600/2624 12015KT CAVOK TN19/2608Z TX34/2617Z BECMG 2604/2606 08008KT BECMG 2611/2613 03010KT BECMG 2613/2615 33012KT 9999 SCT040 BECMG 2615/2617 SCT045 BECMG 2617/2619 28005KT BECMG 2619/2621 15005KT RMK PGE SBLO 252130Z 2600/2612 12005KT CAVOK TX27/2600Z TN21/2609Z RMK PDW SBLP 252200Z 2600/2612 05006KT CAVOK TN27/2608Z TX30/2611Z RMK PCN SBME 252139Z 2600/2612 03007KT 9999 FEW025TN21/2609Z TX32/2612Z RMK PHI SBMN 252200Z 2600/2624 06003KT CAVOK TN26/2607Z TX34/2618Z BECMG 2610/2612 06008KT BECMG 2613/2615 9999 SCT020 BECMG 2617/2619 12008KT SCT020 FEW025TCU BECMG 2622/2624 CAVOK RMK PFM SBMO 252200Z 2600/2624 13008KT 9999 SCT020 TN23/2608Z TX31/2615Z BECMG 2611/2612 12014KT RMK PCN SBMQ 252200Z 2600/2624 06010KT 9999 SCT015 TN25/2608Z TX34/2617Z BECMG 2602/2604 02005KT BECMG 2605/2607 32004KT BECMG 2610/2612 06007KT SCT020 BECMG 2621/2623 SCT015 RMK PFM SBNF 252130Z 2600/2624 06005KT 9999 FEW020 TN18/2608Z TX24/2614Z BECMG 2602/2604 25006KT 6000 BKN008 BECMG 2609/2611 9999 NSW SCT010 BECMG 2612/2614 04007KT SCT025 PROB40 TEMPO 2621/2623 6000 SHRA BKN020 FEW030TCU RMK PDW SBNT 252200Z 2600/2624 14007KT 9999 SCT018 TN24/2608Z TX30/2615Z BECMG 2611/2612 12014KT RMK PCN SBPJ 252200Z 2600/2612 11005KT CAVOK TX27/2600Z TN24/2607Z BECMG 2604/2606 16005KT RMK PDB SBPL 252200Z 2600/2624 13010KT CAVOK TN24/2608Z TX33/2618Z BECMG 2607/2608 SCT025 RMK PCN SBPS 252200Z 2600/2624 06010KT 8000 SCT015 TN22/2608Z TX28/2616Z PROB40 TEMPO 2602/2608 6000 SHRA FEW010 BKN015 RMK PCN SBRB 252200Z 2600/2624 33005KT CAVOK TN22/2608Z TX34/2617Z BECMG 2612/2614 36007KT 9999 SCT025 BECMG 2616/2618 SCT030 FEW035TCU RMK PFM SBRF 252200Z 2600/2624 12010KT 9999 SCT020 TN24/2608Z TX28/2614Z PROB30 TEMPO 2603/2607 8000 SHRA BKN018 RMK PCN SBRJ 252139Z 2600/2612 17005KT 8000 FEW025TN23/2609Z TX27/2612Z BECMG 2601/2603 33005KT BECMG 2607/2609 4000 BR BKN010 BECMG 2610/2612 03005KT SCT012 RMK PHI SBRP 252200Z 2600/2624 15005KT CAVOK TN22/2609Z TX37/2617Z BECMG 2601/2603 11006KT BECMG 2611/2613 34007KT BECMG 2613/2615 9999 FEW035 BECMG 2615/2617 SCT040 PROB30 2618/2621 FEW040 FEW045TCU BECMG 2621/2623 16010KT FEW040 RMK PGE SBSC 252130Z 2600/2612 25005KT 9999 FEW015 SCT035 TN22/2606Z TX26/2612Z PROB40 TEMPO 2606/2609 5000 BR BKN010 RMK PDW SBSJ 252139Z 2600/2624 21005KT 9999 FEW030TN18/2609Z TX31/2618Z BECMG 2607/2609 04003KT 4000 BR BKN010 BECMG 2611/2613 7000 NSW SCT020 BECMG 2614/2616 30007KT 9999 PROB30 2618/2621 TS BKN025 FEW030CB BECMG 2619/2621 14015KT RMK PHI SBSL 252200Z 2600/2624 04010KT CAVOK TN25/2607Z TX31/2615Z BECMG 2606/2608 06009KT 9999 SCT012 BECMG 2619/2621 06010KT CAVOK RMK PFM SBSM 252130Z 2600/2612 10005KT 9999 FEW015 TN17/2606Z TX19/2612Z BECMG 2601/2603 8000 BKN006 BECMG 2610/2612 9999 NSW BKN011 RMK PDW SBSN 252200Z 2600/2624 10003KT CAVOK TN23/2607Z TX31/2617Z BECMG 2606/2608 08007KT 9999 SCT017 BECMG 2615/2617 06005KT FEW022 RMK PFM SBSP 252200Z 2600/2624 00000KT 7000 BKN011TN20/2609Z TX32/2617Z PROB30 2600/2602 OVC005 PROB30 2605/2609 5000 BR OVC005 BECMG 2609/2611 SCT008 BECMG 2611/2613 04007KT CAVOK BECMG 2614/2616 31010KT 9999 SCT035 BECMG 2616/2618 27007KT 9999 BKN040 BECMG 2619/2621 00000KT PROB30 2621/2623 6000 NSC RMK PGE SBSV 252200Z 2600/2624 09010KT 9999 SCT020 TN25/2608Z TX29/2614Z RMK PCN SBTE 252200Z 2600/2612 34005KT 9999 SCT025 TX31/2600Z TN25/2609Z PROB30 2601/2605 8000 SHRA BKN016 RMK PCN SBTT 252200Z 2600/2624 06003KT CAVOK TN23/2608Z TX34/2618Z BECMG 2609/2611 06005KT CAVOK BECMG 2615/2617 9999 SCT022 BECMG 2619/2621 CAVOK RMK PFM SBUG 251400Z 2518/2606 07011KT 9999 BKN009 OVC015 TX22/2518Z TN20/2605Z BECMG 2522/2524 14005KT SCT009 BKN020 RMK PDV SBUL 252200Z 2600/2612 08005KT CAVOK TN23/2609Z TX28/2612Z BECMG 2607/2609 07010KT BECMG 2610/2612 03016KT RMK PGE SBUR 252200Z 2600/2612 04007KT CAVOK TN23/2609Z TX30/2612Z BECMG 2603/2605 08007KT PROB30 2609/2611 7000 NSC RMK PGE SBVH 252200Z 2600/2612 33006KT CAVOK TN17/2608Z TX25/2611Z RMK PFM SBVT 252200Z 2600/2624 01007KT 9999 SCT025 TN23/2608Z TX31/2614Z BECMG 2611/2612 06014KT RMK PCN SBYS 252200Z 2600/2612 19005KT CAVOK TX25/2600Z TN16/2609Z PROB40 TEMPO 2606/2611 4000 BR NSC BECMG 2609/2611 13005KT RMK PDB SCAR 252233Z 2600/2624 19004KT CAVOK TN16/2606Z TX19/2618Z BECMG 2602/2604 OVC025 BECMG 2605/2607 03004KT BECMG 2609/2611 19004KT BECMG 2616/2618 22010KT CAVOK BECMG 2622/2624 19004KT SCAT 252236Z 2600/2624 23004KT 9999 OVC015 TN12/2606Z TX17/2618Z BECMG 2605/2607 33004KT OVC010 BECMG 2616/2618 33010KT SCT015 BECMG 2622/2624 27010KT BKN015 SCCF 252235Z 2600/2624 23010KT CAVOK TN02/2606Z TX24/2618Z BECMG 2603/2605 11015KT BECMG 2616/2618 27020KT SCDA 252234Z 2600/2624 22010KT 9999 BKN030 TN17/2606Z TX19/2618Z BECMG 2602/2604 19004KT OVC025 BECMG 2616/2618 23010KT FEW025 BECMG 2622/2624 BKN025 SCEL 252212Z 2600/2624 20008KT 9999 SCT160 BKN200 TX19/2619Z TN08/2611Z BECMG 2602/2604 16004KT 8000 SCT160 OVC200 TEMPO 2606/2613 VRB02KT 5000 BR SCT080 OVC180 BECMG 2615/2617 20007KT SCFA 252236Z 2600/2624 19004KT 9999 BKN015 TN14/2606Z TX17/2617Z BECMG 2602/2604 OVC015 BECMG 2607/2609 33004KT BECMG 2614/2616 22010KT FEW020 BECMG 2622/2624 BKN015 SCIE 252212Z 2600/2624 22012KT CAVOK TX15/2618Z TN09/2611Z BECMG 2603/2605 20006KT SCT030 BKN100 TEMPO 2608/2612 15004KT FEW010 SCT120 BECMG 2615/2617 27007KT FEW050 BKN100 BECMG 2619/2621 01006KT SCT025 BKN070 SCIP 252238Z 2600/2700 12013KT 9999 SCT015 BKN020 TN18/2610Z TX20 /2620Z TEMPO 2600/2608 15008KT 4000 SHRA SCT010 BKN015 OVC020 BECMG 2609/2611 3000 +SHRA SCT008 BKN012 OVC020 BECMG 2617/2619 9999 NSW FEW015 SCT020 BKN040 TEMPO 2620/2700 12018KT 7000 -SHRA SCT015 BKN020 SCSE 252211Z 2600/2624 29010KT 9999 FEW010 BKN015 TX15/2618Z TN10/2611Z BECMG 2601/2603 30004KT SCT008 BKN015 BECMG 2606/2608 12004KT OVC012 BECMG 2614/2616 29004KT FEW012 SCT020 BECMG 2616/2618 29008KT TEMPO 2619/2700 CAVOK SOCA 251600Z 2518/2618 08006KT 9999 FEW030 PROB30 TEMPO 2518/2520 4000 -SHRA FEW012TCU BECMG 2521/2523 VRB02KT BECMG 2613/2615 11012KT SPGM 251700Z 2518/2618 22005KT 9999 SCT040 SCT100 TX30/2519Z TN20/2611Z TEMPO 2518/2520 FEW040TCU BKN100 TEMPO 2521/2523 FEW040TCU BKN080 SPHO 251700Z 2518/2618 VRB02KT 9999 FEW045 TX24/2519Z TN10/2611Z TEMPO 2518/2522 06012KT FEW050TCU BKN100 BECMG 2523/2602 00000KT FEW060 SCT120 FM261000 00000KT CAVOK SPHY 251700Z 2518/2618 36010KT 9999 FEW015 BKN050 TX17/2519Z TNM03/2611Z BECMG 2523/2602 00000KT SCT012 BKN040 FM261100 VRB01KT CAVOK SPJI 251700Z 2518/2618 VRB02KT 9999 SCT020 TX36/2520Z TN17/2611Z TEMPO 2608/2612 8000 BKN015 SPJR 251700Z 2518/2618 06005KT 9999 SCT030 BKN043 TX23/2519Z TN06/2611Z TEMPO 2519/2522 09015KT 8000 RA SCT030 BKN040 SPLO 251700Z 2518/2618 17008KT 9999 BKN025 TX20/2519Z TN16/2610Z FM260000 VRB05KT 9999 SCT010 SCT080 SPMS 251700Z 2518/2618 01003KT 9999 FEW020 SCT100 TX36/2520Z TN24/2611Z TEMPO 2609/2613 00000KT 8000 NSC SPRU 260200Z 2602/2624 14008KT 7000 OVC008 TX20/2619Z TN15/2611Z BECMG 2605/2607 5000 BR BECMG 2614/2616 7000 NSW OVC015 FM261800 17012KT 9999 SCT025 SPTU 251700Z 2518/2618 31008KT 9999 FEW010 TX37/2519Z TN21/2611Z FM252300 VRB01KT CAVOK SPYL 251700Z 2518/2618 19011KT CAVOK TX27/2519Z TN17/2611Z TEMPO 2519/2522 18016KT TKPN 260200Z 2600/2624 CNL TLPC 251700Z 2518/2618 10012G22KT 9999 SCT024 TEMPO 2518/2612 SHRA BKN018TCU PROB40 TEMPO 2518/2612 TSRA FEW0165CB TLPL 251700Z 2518/2618 09019KT 9999 SCT024 TEMPO 2518/2612 SHRA BKN018TCU PROB40 TEMPO 2518/2612 TSRA FEW016CB TQPF 260200Z 2600/2624 CNL TRPG 260200Z 2600/2624 CNL TUPJ 260200Z 2600/2624 CNL UBBQ 251719Z 2518/2618 VRB04KT 9999 FEW040 SCT100 TX25/2609Z TN14/2602Z TEMPO 2522/2603 3000 BR SCT010 BECMG 2604/2606 15006KT TEMPO 2606/2609 VRB04KT BECMG 2609/2611 14016G26KT TEMPO 2611/2618 VRB28KT 6000 -TSRA SCT012 SCT030CB BKN060 UDYZ 251702Z 2518/2618 04006KT CAVOK= UEEE 260200Z 2603/2709 25003MPS CAVOK UGKO 251700Z 2518/2618 27007KT 9999 SCT030 BKN045 TX23/2611Z TN16/2603Z TEMPO 2518/2602 3000 TSRA BKN020CB OVC045 TEMPO 2602/2608 26017KT 3000 SHRA BKN017CB OVC040 UHBB 260145Z 2603/2703 18003MPS CAVOK BECMG 2610/2612 23003MPS= UHSS 260200Z 2603/2709 36006G11MPS 9999 BKN030CB TEMPO 2603/2609 5000 -SHRA BECMG 2609/2612 18003MPS UHHH 260146Z 2603/2709 22003MPS CAVOK UHMA 260143Z 2603/2703 13005G10MPS 9999 SCT007 BKN020 TEMPO 2603/2612 17008G13MPS 4000 -SHRA BR SCT005 BKN015CB BECMG 2612/2614 12010G15MPS 4000 BR TEMPO 2612/2621 09013G18MPS 0600 -SHRA FG BKN004 BKN015CB FM262100 12013G18MPS 4000 -RA BR SCT005 BKN015 TEMPO 2621/2703 12018G23MPS 0600 -SHRA FG BKN004 BKN015CB UHMM 260140Z 2603/2709 23003G08MPS 9999 SCT030 SCT070 TEMPO 2603/2610 35003G08MPS TEMPO 2617/2623 3100 BR BKN011 UHPP 260136Z 2603/2709 32003G12MPS 9999 BKN040CB TEMPO 2603/2610 29005G17MPS TEMPO 2610/2619 02003MPS 1000 BR VV007 TEMPO 2619/2709 32005G17MPS UHSS 260200Z 2603/2709 36006G11MPS 9999 BKN030CB TEMPO 2603/2609 5000 -SHRA BECMG 2609/2612 18003MPS UHWW 260155Z 2603/2703 VRB01MPS 9999 SCT030 BECMG 2604/2606 34003MPS UIAA 260200Z 2603/2703 07003G08MPS 9999 SCT040CB TEMPO 2603/2615 14005MPS TEMPO 2615/2703 01006G11MPS -SHRA BKN014CB UIBB 260200Z 2603/2703 26007MPS 6000 -SHRA BKN005 BKN016CB TEMPO 2603/2608 BKN003 BKN016CB BECMG 2608/2609 BKN016CB UIII 260200Z 2603/2703 30006MPS 5000 -SHRA OVC004CB TEMPO 2603/2703 OVC007CB UIUU 260200Z 2603/2703 34003G08MPS 9999 SCT030CB TEMPO 2606/2703 31008G13MPS 3500 -SHRA BKN015CB ULLI 260155Z 2603/2703 24005G10MPS 9999 BKN030 BECMG 2606/2608 23008G13MPS TEMPO 2608/2618 22013G18MPS 3100 -SHRA BKN011 BKN020CB BECMG 2618/2620 28008G13MPS TEMPO 2618/2703 3100 -SHRA BKN011 BKN015CB UNAA 260157Z 2603/2703 25003G10MPS 9999 SCT017CB TEMPO 2603/2612 24008G14MPS 4000 -SHRA BECMG 2612/2613 3100 -SHRA BKN011CB UNBB 260200Z 2603/2703 22003G08MPS 9999 SCT030 TEMPO 2617/2703 3100 BR SCT002 BKN011 UNEE 260200Z 2603/2703 24003G08MPS 9999 BKN030 TEMPO 2618/2703 0300 FG VV001 UNKL 260159Z 2603/2703 29003G09MPS 9999 SCT011 BKN020CB TEMPO 2603/2612 31008G14MPS 3500 -SHRA SCT008 BKN013CB FM261200 26003MPS 3100 -SHRA BR BKN013CB UNNT 260200Z 2603/2703 26003G08MPS CAVOK TEMPO 2603/2606 BKN011 UNOO 260145Z 2603/2703 24003G08MPS 6000 SCT030 URKA 260155Z 2603/2703 32003G08MPS 9999 SCT030CB TEMPO 2603/2612 01007G12MPS 3100 -SHRA BKN020CB URKK 260156Z 2603/2703 35003G08MPS 9999 SCT030CB TEMPO 2603/2612 23003G08MPS 3100 -SHRA SCT011 BKN020CB URMM 260158Z 2603/2703 28006G12MPS 9999 BKN020 TX16/2612Z TN10/2703Z TEMPO 2603/2618 3100 -SHRA BKN011 BKN020CB TEMPO 2618/2703 3100 BR BKN011 URRP 260156Z 2603/2703 32003G08MPS 3100 BR SCT011 SCT020CB TX16/2612Z TN06/2603Z TEMPO 2603/2606 26003G08MPS 0500 FG SCT003 SCT020CB FM260600 33006G12MPS 9999 SCT030CB TEMPO 2606/2615 4000 -SHRA SCT015 SCT030CB URSS 260158Z 2603/2703 28008G13MPS 9999 -SHRA BKN011 BKN020CB OVC100 TEMPO 2603/2606 VRB10G18MPS 2100 -TSRA SQ BKN006 BKN020CB OVC100 BECMG 2606/2607 SCT040CB OVC100 BECMG 2616/2618 06005MPS SCT030CB OVC100 USCC 260200Z 2603/2703 19003G10MPS 9999 SCT040 TEMPO 2618/2703 4100 -RA BKN020 USHH 260151Z 2603/2703 22005G13MPS 9999 SCT030 TEMPO 2603/2606 SCT004 FM261400 22003G08MPS 9999 BKN015CB TEMPO 2614/2703 3100 -SHRA BR SCT003 BKN011CB USNN 260200Z 2603/2703 21003MPS 9999 SCT020 TEMPO 2603/2605 2000 BR USPP 260158Z 2603/2703 19006G13MPS 9999 BKN016 OVC100 TEMPO 2603/2606 3100 -SHRA BKN011CB OVC070 BECMG 2606/2608 24005G12MPS USRR 260155Z 2603/2703 22007G14MPS 9999 SCT020 USSS 260155Z 2603/2703 17003G10MPS CAVOK BECMG 2608/2610 21005G13MPS SCT030 USTR 260147Z 2603/2703 19007MPS 9999 SCT030 TEMPO 2603/2605 SCT007 SCT030 UTAK 252230Z 2523/2624 04014KT 3000 BR SCT006 530009 TEMPO 2523/2603 VRB04KT 0500 FG VV001 BECMG 2603/2604 33016KT 9999 NSW SCT026 SCT100 UTDD 260000Z 2601/2613 VRB02MPS 6000 FEW066CB SCT110 TEMPO 2607/2613 27005MPS PROB40 TEMPO 2607/2613 TS UTNN 251700Z 2518/2618 VRB04KT CAVOK TEMPO 2602/2612 05010G20KT= UTNU 251701Z 2518/2618 06010G20KT 7000 NSC TEMPO 2518/2524 VRB05KT UUBW 260158Z 2603/2703 28006MPS 9999 BKN015 TX13/2612Z TN04/2603Z TEMPO 2606/2614 26008G13MPS BECMG 2614/2616 22008G13MPS BECMG 2619/2621 5000 -RA OVC011 TEMPO 2621/2703 23013G18MPS 3100 -SHRA FEW005 BKN015CB UUDD 260158Z 2603/2709 29006G12MPS 9999 SCT011 TX12/2611Z TN03/2603Z TEMPO 2603/2607 -SHRA FEW006 BKN012CB BECMG 2613/2615 22008G15MPS BECMG 2619/2621 5000 -RA FEW007 OVC011 TEMPO 2621/2706 22015G22MPS 2000 SHRA SCT004 BKN012CB UUDL 260200Z 2603/2703 26007MPS 9999 BKN040 BECMG 2611/2613 21005MPS TEMPO 2621/2703 -SHRA BKN011CB UUEE 260159Z 2603/2703 28006G11MPS 9999 SCT015 TX11/2612Z TN04/2603Z TEMPO 2608/2614 23010G16MPS BECMG 2614/2616 22008G13MPS BECMG 2619/2621 6000 -RA OVC011 TEMPO 2621/2703 22012G18MPS 1200 SHRA BKN007 SCT010CB UUWW 260151Z 2603/2703 28006MPS 9999 SCT015 TX10/2612Z TN03/2603Z TEMPO 2603/2605 FEW006 TEMPO 2608/2614 25008G15MPS BECMG 2614/2616 22008G15MPS BKN011 TEMPO 2621/2703 22015G20MPS 3100 -SHRA FEW004 BKN020CB UWGG 260155Z 2603/2703 26007G13MPS 5000 -SHRA BKN010 BKN015CB TX10/2615Z TN06/2603Z TEMPO 2606/2615 29007G15MPS UWKD 260156Z 2603/2703 25005MPS 9999 BKN015 TX13/2612Z TN05/2702Z TEMPO 2603/2606 22007G12MPS 3100 -SHRA BKN007 BKN010CB TEMPO 2606/2615 26007G12MPS UWKE 260145Z 2603/2703 24006G12MPS 9999 BKN020 TEMPO 2603/2607 27007G14MPS 1000 SHRA BR BKN003 BKN015CB TEMPO 2607/2703 27009G14MPS 3100 -SHRA BKN015CB UWLW 260145Z 2603/2703 27003G09MPS 8000 BKN020 TEMPO 2603/2615 24007G13MPS 3100 -SHRA BKN011 BKN015CB BECMG 2615/2617 20003MPS UWOO 260156Z 2603/2703 17007G14MPS 9999 SCT020CB BKN030 TX23/2611Z TN08/2701Z TEMPO 2603/2606 15003G09MPS 3100 -SHRA BR BKN015CB BECMG 2616/2618 31005G12MPS TEMPO 2618/2703 32003G09MPS 3100 -SHRA BR BKN011 BKN015CB UWUU 260154Z 2603/2703 17006G12MPS 9999 BKN020 TEMPO 2603/2612 21008G15MPS 3100 -SHRA BR BKN011CB BECMG 2612/2615 30003G09MPS TEMPO 2612/2703 24003G09MPS 3100 -SHRA BKN011CB UWWW 260200Z 2603/2703 28005G11MPS 9999 BKN015 OVC100 TX13/2612Z TN09/2603Z TEMPO 2603/2606 3100 -SHRA BR BKN007 BKN011CB TEMPO 2606/2618 32008G13MPS 4000 -SHRA BKN011CB VOMD 251700Z 2518/2624 32005KT 5000 HZ SCT020 SCT100 TEMPO 2518/2521 4000 -TSRA/RA SCT015 FEW025TCU/CB BKN080 BECMG 2521/2522 00000KT BECMG 2603/2604 32010KT 6000 TEMPO 2609/2615 SCT020 FEW025TCU/CB BKN100 BECMG 2612/2613 18010KT BECMG 2621/2622 00000KT 5000 HZ VTSF 252300Z 2600/2624 10003KT 9999 FEW020 TEMPO 2606/2612 VRB10G20KT 4000 TSRA FEW016CB SCT018 BKN100 WABB 251700Z 2518/2700 00000KT 9999 FEW018 BECMG 2522/2600 08007KT SCT018 WADD 251700Z 2518/2618 11010KT 9999 SCT017 WBGB 251700Z 2518/2618 VRB03KT 9999 SCT016 TEMPO 2522/2602 4000 TSRA FEW015CB WBGR 251700Z 2518/2618 VRB03KT 9999 SCT016 WBGS 251700Z 2518/2618 VRB03KT 9999 SCT018 TEMPO 2605/2609 20005KT 3000 TSRA FEW015CB SCT016 WBKL 251700Z 2518/2618 VRB03KT 9999 FEW013 WBKS 251700Z 2518/2618 22005KT 9999 FEW016 WBKW 251700Z 2518/2618 32005KT 9999 FEW017 TEMPO 2520/2523 4000 TSRA FEW012 FEW015CB SCT035 WIEE 251800Z 2518/2618 34003KT 9999 SCT019 BECMG 2601/2603 25006KT FEW020 WIHH 251700Z 2518/2618 12005KT 6000 FEW022 BECMG 2602/2604 05008KT SCT020 WIMM 251700Z 2518/2618 VRB05KT 6000 SCT018 TEMPO 2522/2601 4000 BR BECMG 2603/2605 02010KT 9999 WMKJ 251700Z 2518/2618 VRB02KT 9999 FEW023 BECMG 2521/2522 VRB03KT 8000 FEW010 BECMG 2603/2604 11005KT FEW018 PROB30 TEMPO 2607/2611 30005KT 4000 TSRA FEW015CB SCT018 WMKK 252351Z 2600/2706 VRB03KT 7000 FEW017CB BECMG 2603/2604 16005KT 9000 FEW018 PROB30 TEMPO 2607/2611 19006KT 5000 TSRA FEW017CB SCT018 BECMG 2612/2613 FEW030 WMKP 251700Z 2518/2618 01005KT 8000 FEW025 SCT140 BKN270 TEMPO 2603/2609 21010KT WSAP 260000Z 2600/2706 14010KT 9999 FEW018CB SCT020 TEMPO 2604/2607 3000 TSRA FEW012CB BKN015 WSSL 260000Z 2600/2706 14010KT 9999 FEW018CB SCT020 TEMPO 2604/2607 3000 TSRA FEW012CB BKN015 WSSS 260120Z 2601/2706 14010KT 9999 FEW018CB SCT020 YAMB 251615Z 2518/2612 19005KT 9999 SCT030 BKN040 FM260100 10012KT 9999 SCT045 FM260400 09012KT 9999 -SHRA SCT040 BKN050 FM261000 19005KT 9999 -SHRA SCT025 BKN040 PROB30 TEMPO 2605/2612 2000 TSRA BKN015 SCT040CB YCFS 252327Z 2523/2624 25005KT 9999 -SHRA FEW030 BKN040 BECMG 2600/2602 05010KT 9999 -SHRA FEW040 SCT050 FM261000 VRB03KT 9999 -SHRA FEW015 BKN030 BECMG 2614/2616 22008KT 9999 NSW SCT030 TEMPO 2602/2612 4000 SHRA BKN015 INTER 2612/2614 4000 SHRA BKN015 PROB30 INTER 2602/2612 VRB15G25KT 2000 TSRA BKN015 SCT030CB YCIN 260104Z 2602/2614 02008KT CAVOK FM260800 33010KT CAVOK YFRT 260104Z 2602/2614 16014KT CAVOK YPGV 260158Z 2602/2614 11014KT 9999 SCT030 FM260800 12006KT 9999 SCT060 YPKU 260104Z 2602/2614 07008KT CAVOK FM261000 VRB05KT CAVOK YSDU 252357Z 2600/2618 15006KT 9999 -SHRA SCT025 BECMG 2600/2602 27012KT 9999 -SHRA SCT060 FM260700 11011KT 9999 SCT020 TEMPO 2600/2608 5000 SHRA BKN015 PROB30 INTER 2600/2608 3000 TSRA BKN010 SCT030CB YSSY 260135Z 2601/2706 28008KT 9999 -SHRA FEW012 SCT035 FM260400 22014KT 9999 -SHRA FEW012 SCT025 FM260700 16008KT 9999 -SHRA SCT030 FM261400 29008KT 9999 SCT020 FM270200 03015KT CAVOK INTER 2602/2608 4000 SHRA BKN010 PROB30 TEMPO 2604/2607 VRB25G35KT 3000 TSRA BKN010 SCT030CB PROB30 2618/2622 4000 BR YTNK 260158Z 2602/2614 08016G26KT CAVOK FM260300 11010KT CAVOK YTRE 251919Z 2520/2608 VRB05KT 9999 FEW030 BECMG 2600/2602 07010KT 9999 -SHRA FEW020 SCT030 PROB30 2520/2522 0500 FG PROB30 TEMPO 2603/2608 VRB15G25KT 2000 TSRA BKN015 SCT030CB YWGT 260108Z 2602/2614 VRB05KT CAVOK ZHHH 251909Z 2518/2618 05004MPS 3000 -RA BR SCT020 TX27/2607Z TN17/2522Z BECMG 2603/2604 4000 BR TEMPO 2518/2522 2800 RA BR